<?xml version="1.0" encoding="UTF-8" standalone="no" ?>
<gpx xmlns="http://www.topografix.com/GPX/1/1" xmlns:xsi="http://www.w3.org/2001/XMLSchema-instance" xsi:schemaLocation="http://www.topografix.com/GPX/1/1 http://www.topografix.com/GPX/1/1/gpx.xsd" version="1.1" creator="VisuGPX - https://www.visugpx.com">
  <metadata>
    <name>Concarneau</name>
    <desc><![CDATA[Préparation Bretagne sept 2020]]></desc>
  </metadata>
  <trk>
    <name><![CDATA[track]]></name>
    <trkseg>
      <trkpt lat="47.87983" lon="-3.93058">
        <ele>-103</ele>
        <time>2013-07-15T06:27:22Z</time>
      </trkpt>
      <trkpt lat="47.87982" lon="-3.9306">
        <ele>-103</ele>
        <time>2013-07-15T06:27:23Z</time>
      </trkpt>
      <trkpt lat="47.87981" lon="-3.93066">
        <ele>-99</ele>
        <time>2013-07-15T06:27:26Z</time>
      </trkpt>
      <trkpt lat="47.87981" lon="-3.93067">
        <ele>-96</ele>
        <time>2013-07-15T06:27:27Z</time>
      </trkpt>
      <trkpt lat="47.87981" lon="-3.93069">
        <ele>-92</ele>
        <time>2013-07-15T06:27:28Z</time>
      </trkpt>
      <trkpt lat="47.8798" lon="-3.9307">
        <ele>-89</ele>
        <time>2013-07-15T06:27:29Z</time>
      </trkpt>
      <trkpt lat="47.8798" lon="-3.93072">
        <ele>-85</ele>
        <time>2013-07-15T06:27:30Z</time>
      </trkpt>
      <trkpt lat="47.8798" lon="-3.93073">
        <ele>-82</ele>
        <time>2013-07-15T06:27:31Z</time>
      </trkpt>
      <trkpt lat="47.87979" lon="-3.93075">
        <ele>-76</ele>
        <time>2013-07-15T06:27:32Z</time>
      </trkpt>
      <trkpt lat="47.87979" lon="-3.93077">
        <ele>-76</ele>
        <time>2013-07-15T06:27:33Z</time>
      </trkpt>
      <trkpt lat="47.87979" lon="-3.93079">
        <ele>-71</ele>
        <time>2013-07-15T06:27:34Z</time>
      </trkpt>
      <trkpt lat="47.87979" lon="-3.9308">
        <ele>-66</ele>
        <time>2013-07-15T06:27:37Z</time>
      </trkpt>
      <trkpt lat="47.8798" lon="-3.93079">
        <ele>-61</ele>
        <time>2013-07-15T06:27:39Z</time>
      </trkpt>
      <trkpt lat="47.87979" lon="-3.93078">
        <ele>-57</ele>
        <time>2013-07-15T06:27:41Z</time>
      </trkpt>
      <trkpt lat="47.87979" lon="-3.9308">
        <ele>-53</ele>
        <time>2013-07-15T06:27:43Z</time>
      </trkpt>
      <trkpt lat="47.87979" lon="-3.93083">
        <ele>-50</ele>
        <time>2013-07-15T06:27:45Z</time>
      </trkpt>
      <trkpt lat="47.87979" lon="-3.93086">
        <ele>-46</ele>
        <time>2013-07-15T06:27:47Z</time>
      </trkpt>
      <trkpt lat="47.87979" lon="-3.93089">
        <ele>-43</ele>
        <time>2013-07-15T06:27:49Z</time>
      </trkpt>
      <trkpt lat="47.87979" lon="-3.93092">
        <ele>-40</ele>
        <time>2013-07-15T06:27:51Z</time>
      </trkpt>
      <trkpt lat="47.87981" lon="-3.93095">
        <ele>-36</ele>
        <time>2013-07-15T06:27:54Z</time>
      </trkpt>
      <trkpt lat="47.87982" lon="-3.931">
        <ele>-32</ele>
        <time>2013-07-15T06:27:57Z</time>
      </trkpt>
      <trkpt lat="47.87983" lon="-3.93103">
        <ele>-28</ele>
        <time>2013-07-15T06:28:00Z</time>
      </trkpt>
      <trkpt lat="47.87983" lon="-3.93104">
        <ele>-28</ele>
        <time>2013-07-15T06:28:01Z</time>
      </trkpt>
      <trkpt lat="47.87986" lon="-3.93106">
        <ele>-24</ele>
        <time>2013-07-15T06:28:05Z</time>
      </trkpt>
      <trkpt lat="47.87989" lon="-3.93111">
        <ele>-21</ele>
        <time>2013-07-15T06:28:10Z</time>
      </trkpt>
      <trkpt lat="47.87992" lon="-3.93115">
        <ele>-18</ele>
        <time>2013-07-15T06:28:16Z</time>
      </trkpt>
      <trkpt lat="47.87995" lon="-3.93118">
        <ele>-15</ele>
        <time>2013-07-15T06:28:21Z</time>
      </trkpt>
      <trkpt lat="47.88006" lon="-3.93122">
        <ele>-12</ele>
        <time>2013-07-15T06:28:32Z</time>
      </trkpt>
      <trkpt lat="47.88017" lon="-3.93136">
        <ele>-9</ele>
        <time>2013-07-15T06:28:44Z</time>
      </trkpt>
      <trkpt lat="47.88018" lon="-3.93137">
        <ele>-9</ele>
        <time>2013-07-15T06:28:45Z</time>
      </trkpt>
      <trkpt lat="47.88026" lon="-3.93144">
        <ele>-7</ele>
        <time>2013-07-15T06:28:52Z</time>
      </trkpt>
      <trkpt lat="47.88035" lon="-3.93149">
        <ele>-5</ele>
        <time>2013-07-15T06:29:09Z</time>
      </trkpt>
      <trkpt lat="47.88033" lon="-3.93149">
        <ele>-5</ele>
        <time>2013-07-15T06:29:29Z</time>
      </trkpt>
      <trkpt lat="47.8804" lon="-3.93141">
        <ele>-3</ele>
        <time>2013-07-15T06:29:41Z</time>
      </trkpt>
      <trkpt lat="47.88042" lon="-3.93134">
        <ele>-4</ele>
        <time>2013-07-15T06:29:45Z</time>
      </trkpt>
      <trkpt lat="47.88048" lon="-3.93124">
        <ele>-4</ele>
        <time>2013-07-15T06:29:55Z</time>
      </trkpt>
      <trkpt lat="47.88066" lon="-3.93132">
        <ele>-3</ele>
        <time>2013-07-15T06:30:11Z</time>
      </trkpt>
      <trkpt lat="47.88067" lon="-3.93132">
        <ele>-3</ele>
        <time>2013-07-15T06:30:13Z</time>
      </trkpt>
      <trkpt lat="47.88076" lon="-3.9313">
        <ele>-3</ele>
        <time>2013-07-15T06:30:20Z</time>
      </trkpt>
      <trkpt lat="47.88082" lon="-3.93131">
        <ele>-3</ele>
        <time>2013-07-15T06:30:33Z</time>
      </trkpt>
      <trkpt lat="47.88095" lon="-3.93149">
        <ele>-3</ele>
        <time>2013-07-15T06:30:48Z</time>
      </trkpt>
      <trkpt lat="47.88095" lon="-3.9315">
        <ele>-3</ele>
        <time>2013-07-15T06:30:49Z</time>
      </trkpt>
      <trkpt lat="47.88097" lon="-3.93157">
        <ele>-3</ele>
        <time>2013-07-15T06:30:53Z</time>
      </trkpt>
      <trkpt lat="47.88116" lon="-3.93186">
        <ele>-3</ele>
        <time>2013-07-15T06:31:12Z</time>
      </trkpt>
      <trkpt lat="47.88127" lon="-3.93204">
        <ele>-2</ele>
        <time>2013-07-15T06:31:25Z</time>
      </trkpt>
      <trkpt lat="47.8813" lon="-3.93212">
        <ele>-3</ele>
        <time>2013-07-15T06:31:31Z</time>
      </trkpt>
      <trkpt lat="47.88147" lon="-3.93238">
        <ele>-2</ele>
        <time>2013-07-15T06:31:48Z</time>
      </trkpt>
      <trkpt lat="47.88148" lon="-3.9324">
        <ele>-2</ele>
        <time>2013-07-15T06:31:49Z</time>
      </trkpt>
      <trkpt lat="47.88153" lon="-3.93251">
        <ele>-2</ele>
        <time>2013-07-15T06:31:57Z</time>
      </trkpt>
      <trkpt lat="47.88162" lon="-3.93265">
        <ele>-1</ele>
        <time>2013-07-15T06:32:08Z</time>
      </trkpt>
      <trkpt lat="47.88165" lon="-3.93268">
        <ele>-1</ele>
        <time>2013-07-15T06:32:11Z</time>
      </trkpt>
      <trkpt lat="47.88176" lon="-3.93283">
        <ele>-1</ele>
        <time>2013-07-15T06:32:22Z</time>
      </trkpt>
      <trkpt lat="47.88191" lon="-3.93301">
        <ele>8.3</ele>
        <time>2013-07-15T06:32:36Z</time>
      </trkpt>
      <trkpt lat="47.88207" lon="-3.93319">
        <ele>1</ele>
        <time>2013-07-15T06:32:54Z</time>
      </trkpt>
      <trkpt lat="47.88221" lon="-3.93333">
        <ele>1</ele>
        <time>2013-07-15T06:33:07Z</time>
      </trkpt>
      <trkpt lat="47.88217" lon="-3.93344">
        <ele>1</ele>
        <time>2013-07-15T06:33:20Z</time>
      </trkpt>
      <trkpt lat="47.88217" lon="-3.93345">
        <ele>1</ele>
        <time>2013-07-15T06:33:42Z</time>
      </trkpt>
      <trkpt lat="47.88229" lon="-3.93351">
        <ele>2</ele>
        <time>2013-07-15T06:33:49Z</time>
      </trkpt>
      <trkpt lat="47.88233" lon="-3.93362">
        <ele>2</ele>
        <time>2013-07-15T06:33:59Z</time>
      </trkpt>
      <trkpt lat="47.88234" lon="-3.93366">
        <ele>2</ele>
        <time>2013-07-15T06:34:10Z</time>
      </trkpt>
      <trkpt lat="47.88236" lon="-3.93366">
        <ele>2</ele>
        <time>2013-07-15T06:34:35Z</time>
      </trkpt>
      <trkpt lat="47.8824" lon="-3.93374">
        <ele>2</ele>
        <time>2013-07-15T06:35:01Z</time>
      </trkpt>
      <trkpt lat="47.8824" lon="-3.93375">
        <ele>2</ele>
        <time>2013-07-15T06:35:02Z</time>
      </trkpt>
      <trkpt lat="47.88248" lon="-3.93392">
        <ele>2</ele>
        <time>2013-07-15T06:35:12Z</time>
      </trkpt>
      <trkpt lat="47.8825" lon="-3.934">
        <ele>2</ele>
        <time>2013-07-15T06:35:16Z</time>
      </trkpt>
      <trkpt lat="47.88252" lon="-3.93405">
        <ele>2</ele>
        <time>2013-07-15T06:35:19Z</time>
      </trkpt>
      <trkpt lat="47.88259" lon="-3.9343">
        <ele>4</ele>
        <time>2013-07-15T06:35:33Z</time>
      </trkpt>
      <trkpt lat="47.88264" lon="-3.93452">
        <ele>5</ele>
        <time>2013-07-15T06:35:46Z</time>
      </trkpt>
      <trkpt lat="47.88263" lon="-3.9345">
        <ele>5</ele>
        <time>2013-07-15T06:36:00Z</time>
      </trkpt>
      <trkpt lat="47.88267" lon="-3.93458">
        <ele>5</ele>
        <time>2013-07-15T06:36:20Z</time>
      </trkpt>
      <trkpt lat="47.88272" lon="-3.9349">
        <ele>5</ele>
        <time>2013-07-15T06:36:36Z</time>
      </trkpt>
      <trkpt lat="47.88279" lon="-3.93522">
        <ele>6</ele>
        <time>2013-07-15T06:36:53Z</time>
      </trkpt>
      <trkpt lat="47.88282" lon="-3.93532">
        <ele>6</ele>
        <time>2013-07-15T06:36:58Z</time>
      </trkpt>
      <trkpt lat="47.88286" lon="-3.93539">
        <ele>6</ele>
        <time>2013-07-15T06:37:10Z</time>
      </trkpt>
      <trkpt lat="47.88287" lon="-3.93543">
        <ele>6</ele>
        <time>2013-07-15T06:37:32Z</time>
      </trkpt>
      <trkpt lat="47.88289" lon="-3.93552">
        <ele>6</ele>
        <time>2013-07-15T06:37:37Z</time>
      </trkpt>
      <trkpt lat="47.88292" lon="-3.93568">
        <ele>6</ele>
        <time>2013-07-15T06:37:46Z</time>
      </trkpt>
      <trkpt lat="47.88294" lon="-3.93598">
        <ele>5</ele>
        <time>2013-07-15T06:38:01Z</time>
      </trkpt>
      <trkpt lat="47.88293" lon="-3.93608">
        <ele>6</ele>
        <time>2013-07-15T06:38:06Z</time>
      </trkpt>
      <trkpt lat="47.883" lon="-3.93631">
        <ele>5</ele>
        <time>2013-07-15T06:38:18Z</time>
      </trkpt>
      <trkpt lat="47.88303" lon="-3.93646">
        <ele>6</ele>
        <time>2013-07-15T06:38:26Z</time>
      </trkpt>
      <trkpt lat="47.88306" lon="-3.9368">
        <ele>6</ele>
        <time>2013-07-15T06:38:42Z</time>
      </trkpt>
      <trkpt lat="47.88309" lon="-3.93708">
        <ele>5</ele>
        <time>2013-07-15T06:38:55Z</time>
      </trkpt>
      <trkpt lat="47.8831" lon="-3.93741">
        <ele>4</ele>
        <time>2013-07-15T06:39:11Z</time>
      </trkpt>
      <trkpt lat="47.88313" lon="-3.93769">
        <ele>3</ele>
        <time>2013-07-15T06:39:25Z</time>
      </trkpt>
      <trkpt lat="47.88321" lon="-3.93806">
        <ele>4</ele>
        <time>2013-07-15T06:39:43Z</time>
      </trkpt>
      <trkpt lat="47.88327" lon="-3.93832">
        <ele>6</ele>
        <time>2013-07-15T06:39:57Z</time>
      </trkpt>
      <trkpt lat="47.88328" lon="-3.93834">
        <ele>6</ele>
        <time>2013-07-15T06:39:58Z</time>
      </trkpt>
      <trkpt lat="47.88329" lon="-3.93842">
        <ele>6</ele>
        <time>2013-07-15T06:40:02Z</time>
      </trkpt>
      <trkpt lat="47.88335" lon="-3.93864">
        <ele>8</ele>
        <time>2013-07-15T06:40:15Z</time>
      </trkpt>
      <trkpt lat="47.88337" lon="-3.93874">
        <ele>8</ele>
        <time>2013-07-15T06:40:27Z</time>
      </trkpt>
      <trkpt lat="47.88331" lon="-3.93878">
        <ele>7</ele>
        <time>2013-07-15T06:40:34Z</time>
      </trkpt>
      <trkpt lat="47.8833" lon="-3.93876">
        <ele>6</ele>
        <time>2013-07-15T06:40:48Z</time>
      </trkpt>
      <trkpt lat="47.88337" lon="-3.93874">
        <ele>9</ele>
        <time>2013-07-15T06:40:57Z</time>
      </trkpt>
      <trkpt lat="47.88347" lon="-3.93882">
        <ele>10</ele>
        <time>2013-07-15T06:41:06Z</time>
      </trkpt>
      <trkpt lat="47.88352" lon="-3.93913">
        <ele>10</ele>
        <time>2013-07-15T06:41:23Z</time>
      </trkpt>
      <trkpt lat="47.88353" lon="-3.93941">
        <ele>8</ele>
        <time>2013-07-15T06:41:38Z</time>
      </trkpt>
      <trkpt lat="47.88353" lon="-3.93948">
        <ele>8</ele>
        <time>2013-07-15T06:41:41Z</time>
      </trkpt>
      <trkpt lat="47.88354" lon="-3.93962">
        <ele>8</ele>
        <time>2013-07-15T06:41:48Z</time>
      </trkpt>
      <trkpt lat="47.88355" lon="-3.93983">
        <ele>7</ele>
        <time>2013-07-15T06:41:57Z</time>
      </trkpt>
      <trkpt lat="47.88365" lon="-3.94014">
        <ele>6</ele>
        <time>2013-07-15T06:42:14Z</time>
      </trkpt>
      <trkpt lat="47.88368" lon="-3.9402">
        <ele>5</ele>
        <time>2013-07-15T06:42:18Z</time>
      </trkpt>
      <trkpt lat="47.88381" lon="-3.94038">
        <ele>2</ele>
        <time>2013-07-15T06:42:31Z</time>
      </trkpt>
      <trkpt lat="47.88383" lon="-3.9404">
        <ele>2</ele>
        <time>2013-07-15T06:42:33Z</time>
      </trkpt>
      <trkpt lat="47.88388" lon="-3.94068">
        <ele>1</ele>
        <time>2013-07-15T06:42:49Z</time>
      </trkpt>
      <trkpt lat="47.88386" lon="-3.94074">
        <ele>1</ele>
        <time>2013-07-15T06:42:55Z</time>
      </trkpt>
      <trkpt lat="47.88381" lon="-3.94082">
        <ele>10.8</ele>
        <time>2013-07-15T06:43:11Z</time>
      </trkpt>
      <trkpt lat="47.88382" lon="-3.9408">
        <ele>10.6</ele>
        <time>2013-07-15T06:43:23Z</time>
      </trkpt>
      <trkpt lat="47.88388" lon="-3.94078">
        <ele>1</ele>
        <time>2013-07-15T06:43:30Z</time>
      </trkpt>
      <trkpt lat="47.88395" lon="-3.94105">
        <ele>4</ele>
        <time>2013-07-15T06:43:45Z</time>
      </trkpt>
      <trkpt lat="47.88407" lon="-3.94121">
        <ele>5</ele>
        <time>2013-07-15T06:43:58Z</time>
      </trkpt>
      <trkpt lat="47.88417" lon="-3.94139">
        <ele>6</ele>
        <time>2013-07-15T06:44:11Z</time>
      </trkpt>
      <trkpt lat="47.88429" lon="-3.94164">
        <ele>6</ele>
        <time>2013-07-15T06:44:27Z</time>
      </trkpt>
      <trkpt lat="47.88439" lon="-3.94191">
        <ele>5</ele>
        <time>2013-07-15T06:44:43Z</time>
      </trkpt>
      <trkpt lat="47.88455" lon="-3.94218">
        <ele>5</ele>
        <time>2013-07-15T06:45:01Z</time>
      </trkpt>
      <trkpt lat="47.88472" lon="-3.94236">
        <ele>4</ele>
        <time>2013-07-15T06:45:17Z</time>
      </trkpt>
      <trkpt lat="47.88491" lon="-3.94245">
        <ele>4</ele>
        <time>2013-07-15T06:45:33Z</time>
      </trkpt>
      <trkpt lat="47.88494" lon="-3.94247">
        <ele>4</ele>
        <time>2013-07-15T06:45:36Z</time>
      </trkpt>
      <trkpt lat="47.88505" lon="-3.94262">
        <ele>4</ele>
        <time>2013-07-15T06:45:46Z</time>
      </trkpt>
      <trkpt lat="47.88518" lon="-3.94284">
        <ele>4</ele>
        <time>2013-07-15T06:46:01Z</time>
      </trkpt>
      <trkpt lat="47.88526" lon="-3.94308">
        <ele>4</ele>
        <time>2013-07-15T06:46:16Z</time>
      </trkpt>
      <trkpt lat="47.88533" lon="-3.94328">
        <ele>4</ele>
        <time>2013-07-15T06:46:31Z</time>
      </trkpt>
      <trkpt lat="47.88533" lon="-3.94328">
        <ele>4</ele>
        <time>2013-07-15T06:46:46Z</time>
      </trkpt>
      <trkpt lat="47.88538" lon="-3.94354">
        <ele>3</ele>
        <time>2013-07-15T06:47:01Z</time>
      </trkpt>
      <trkpt lat="47.88546" lon="-3.94364">
        <ele>4</ele>
        <time>2013-07-15T06:47:14Z</time>
      </trkpt>
      <trkpt lat="47.88552" lon="-3.94368">
        <ele>4</ele>
        <time>2013-07-15T06:47:29Z</time>
      </trkpt>
      <trkpt lat="47.88558" lon="-3.94366">
        <ele>4</ele>
        <time>2013-07-15T06:47:49Z</time>
      </trkpt>
      <trkpt lat="47.88561" lon="-3.94375">
        <ele>4</ele>
        <time>2013-07-15T06:47:52Z</time>
      </trkpt>
      <trkpt lat="47.88567" lon="-3.94388">
        <ele>4</ele>
        <time>2013-07-15T06:48:00Z</time>
      </trkpt>
      <trkpt lat="47.88574" lon="-3.94399">
        <ele>4</ele>
        <time>2013-07-15T06:48:10Z</time>
      </trkpt>
      <trkpt lat="47.88587" lon="-3.94413">
        <ele>5</ele>
        <time>2013-07-15T06:48:22Z</time>
      </trkpt>
      <trkpt lat="47.88591" lon="-3.94413">
        <ele>5</ele>
        <time>2013-07-15T06:48:40Z</time>
      </trkpt>
      <trkpt lat="47.88591" lon="-3.94413">
        <ele>5</ele>
        <time>2013-07-15T06:49:11Z</time>
      </trkpt>
      <trkpt lat="47.88604" lon="-3.94413">
        <ele>6</ele>
        <time>2013-07-15T06:49:22Z</time>
      </trkpt>
      <trkpt lat="47.88629" lon="-3.94423">
        <ele>7</ele>
        <time>2013-07-15T06:49:39Z</time>
      </trkpt>
      <trkpt lat="47.88647" lon="-3.94436">
        <ele>6</ele>
        <time>2013-07-15T06:49:55Z</time>
      </trkpt>
      <trkpt lat="47.88665" lon="-3.94455">
        <ele>4</ele>
        <time>2013-07-15T06:50:11Z</time>
      </trkpt>
      <trkpt lat="47.88669" lon="-3.94456">
        <ele>3</ele>
        <time>2013-07-15T06:50:15Z</time>
      </trkpt>
      <trkpt lat="47.88689" lon="-3.94455">
        <ele>8.2</ele>
        <time>2013-07-15T06:50:30Z</time>
      </trkpt>
      <trkpt lat="47.88703" lon="-3.94473">
        <ele>-3</ele>
        <time>2013-07-15T06:50:46Z</time>
      </trkpt>
      <trkpt lat="47.88704" lon="-3.94473">
        <ele>-3</ele>
        <time>2013-07-15T06:50:48Z</time>
      </trkpt>
      <trkpt lat="47.88707" lon="-3.94475">
        <ele>-4</ele>
        <time>2013-07-15T06:50:51Z</time>
      </trkpt>
      <trkpt lat="47.88721" lon="-3.94486">
        <ele>-2</ele>
        <time>2013-07-15T06:51:08Z</time>
      </trkpt>
      <trkpt lat="47.88731" lon="-3.9449">
        <ele>1</ele>
        <time>2013-07-15T06:51:21Z</time>
      </trkpt>
      <trkpt lat="47.88732" lon="-3.94493">
        <ele>2</ele>
        <time>2013-07-15T06:51:36Z</time>
      </trkpt>
      <trkpt lat="47.88726" lon="-3.94513">
        <ele>5</ele>
        <time>2013-07-15T06:51:51Z</time>
      </trkpt>
      <trkpt lat="47.88722" lon="-3.94546">
        <ele>6</ele>
        <time>2013-07-15T06:52:10Z</time>
      </trkpt>
      <trkpt lat="47.88719" lon="-3.94578">
        <ele>5</ele>
        <time>2013-07-15T06:52:25Z</time>
      </trkpt>
      <trkpt lat="47.88723" lon="-3.94621">
        <ele>5</ele>
        <time>2013-07-15T06:52:46Z</time>
      </trkpt>
      <trkpt lat="47.88719" lon="-3.94657">
        <ele>3</ele>
        <time>2013-07-15T06:53:05Z</time>
      </trkpt>
      <trkpt lat="47.88719" lon="-3.94694">
        <ele>2</ele>
        <time>2013-07-15T06:53:24Z</time>
      </trkpt>
      <trkpt lat="47.88734" lon="-3.947">
        <ele>4</ele>
        <time>2013-07-15T06:53:42Z</time>
      </trkpt>
      <trkpt lat="47.88744" lon="-3.94707">
        <ele>4</ele>
        <time>2013-07-15T06:53:54Z</time>
      </trkpt>
      <trkpt lat="47.8876" lon="-3.94735">
        <ele>4</ele>
        <time>2013-07-15T06:54:14Z</time>
      </trkpt>
      <trkpt lat="47.8877" lon="-3.94741">
        <ele>4</ele>
        <time>2013-07-15T06:54:23Z</time>
      </trkpt>
      <trkpt lat="47.88786" lon="-3.94755">
        <ele>4</ele>
        <time>2013-07-15T06:54:42Z</time>
      </trkpt>
      <trkpt lat="47.88786" lon="-3.94754">
        <ele>4</ele>
        <time>2013-07-15T06:54:49Z</time>
      </trkpt>
      <trkpt lat="47.88794" lon="-3.94751">
        <ele>4</ele>
        <time>2013-07-15T06:54:56Z</time>
      </trkpt>
      <trkpt lat="47.88819" lon="-3.9475">
        <ele>4</ele>
        <time>2013-07-15T06:55:15Z</time>
      </trkpt>
      <trkpt lat="47.88836" lon="-3.94734">
        <ele>5</ele>
        <time>2013-07-15T06:55:31Z</time>
      </trkpt>
      <trkpt lat="47.88843" lon="-3.94731">
        <ele>6</ele>
        <time>2013-07-15T06:55:35Z</time>
      </trkpt>
      <trkpt lat="47.88849" lon="-3.94726">
        <ele>6</ele>
        <time>2013-07-15T06:55:40Z</time>
      </trkpt>
      <trkpt lat="47.88865" lon="-3.94709">
        <ele>6</ele>
        <time>2013-07-15T06:55:56Z</time>
      </trkpt>
      <trkpt lat="47.88882" lon="-3.94706">
        <ele>7</ele>
        <time>2013-07-15T06:56:10Z</time>
      </trkpt>
      <trkpt lat="47.88896" lon="-3.94704">
        <ele>6</ele>
        <time>2013-07-15T06:56:24Z</time>
      </trkpt>
      <trkpt lat="47.88917" lon="-3.94701">
        <ele>5</ele>
        <time>2013-07-15T06:56:41Z</time>
      </trkpt>
      <trkpt lat="47.88925" lon="-3.94701">
        <ele>5</ele>
        <time>2013-07-15T06:56:54Z</time>
      </trkpt>
      <trkpt lat="47.88939" lon="-3.94691">
        <ele>5</ele>
        <time>2013-07-15T06:57:16Z</time>
      </trkpt>
      <trkpt lat="47.88953" lon="-3.94682">
        <ele>4</ele>
        <time>2013-07-15T06:57:29Z</time>
      </trkpt>
      <trkpt lat="47.88974" lon="-3.94676">
        <ele>4</ele>
        <time>2013-07-15T06:57:45Z</time>
      </trkpt>
      <trkpt lat="47.88999" lon="-3.94669">
        <ele>4</ele>
        <time>2013-07-15T06:58:00Z</time>
      </trkpt>
      <trkpt lat="47.89015" lon="-3.94659">
        <ele>2</ele>
        <time>2013-07-15T06:58:16Z</time>
      </trkpt>
      <trkpt lat="47.89017" lon="-3.94633">
        <ele>3</ele>
        <time>2013-07-15T06:58:33Z</time>
      </trkpt>
      <trkpt lat="47.89025" lon="-3.94612">
        <ele>2</ele>
        <time>2013-07-15T06:58:50Z</time>
      </trkpt>
      <trkpt lat="47.89034" lon="-3.94608">
        <ele>2</ele>
        <time>2013-07-15T06:59:04Z</time>
      </trkpt>
      <trkpt lat="47.89044" lon="-3.94592">
        <ele>4</ele>
        <time>2013-07-15T06:59:17Z</time>
      </trkpt>
      <trkpt lat="47.89053" lon="-3.94579">
        <ele>4</ele>
        <time>2013-07-15T06:59:30Z</time>
      </trkpt>
      <trkpt lat="47.89065" lon="-3.94566">
        <ele>1</ele>
        <time>2013-07-15T06:59:43Z</time>
      </trkpt>
      <trkpt lat="47.89079" lon="-3.9455">
        <ele>1</ele>
        <time>2013-07-15T06:59:55Z</time>
      </trkpt>
      <trkpt lat="47.89081" lon="-3.94547">
        <ele>1</ele>
        <time>2013-07-15T06:59:58Z</time>
      </trkpt>
      <trkpt lat="47.89084" lon="-3.94547">
        <ele>1</ele>
        <time>2013-07-15T07:00:00Z</time>
      </trkpt>
      <trkpt lat="47.89095" lon="-3.94532">
        <ele>8.6</ele>
        <time>2013-07-15T07:00:16Z</time>
      </trkpt>
      <trkpt lat="47.89115" lon="-3.94498">
        <ele>10.7</ele>
        <time>2013-07-15T07:00:36Z</time>
      </trkpt>
      <trkpt lat="47.89138" lon="-3.94492">
        <ele>7.8</ele>
        <time>2013-07-15T07:00:51Z</time>
      </trkpt>
      <trkpt lat="47.89146" lon="-3.94496">
        <ele>-1</ele>
        <time>2013-07-15T07:01:07Z</time>
      </trkpt>
      <trkpt lat="47.89145" lon="-3.94505">
        <ele>-2</ele>
        <time>2013-07-15T07:01:21Z</time>
      </trkpt>
      <trkpt lat="47.89143" lon="-3.94511">
        <ele>-3</ele>
        <time>2013-07-15T07:01:27Z</time>
      </trkpt>
      <trkpt lat="47.89142" lon="-3.94517">
        <ele>-4</ele>
        <time>2013-07-15T07:01:42Z</time>
      </trkpt>
      <trkpt lat="47.89143" lon="-3.94527">
        <ele>-5</ele>
        <time>2013-07-15T07:02:12Z</time>
      </trkpt>
      <trkpt lat="47.89143" lon="-3.94526">
        <ele>-5</ele>
        <time>2013-07-15T07:02:25Z</time>
      </trkpt>
      <trkpt lat="47.89143" lon="-3.94529">
        <ele>-4</ele>
        <time>2013-07-15T07:02:41Z</time>
      </trkpt>
      <trkpt lat="47.89145" lon="-3.9452">
        <ele>-1</ele>
        <time>2013-07-15T07:03:00Z</time>
      </trkpt>
      <trkpt lat="47.89162" lon="-3.94489">
        <ele>5.7</ele>
        <time>2013-07-15T07:03:18Z</time>
      </trkpt>
      <trkpt lat="47.89169" lon="-3.94487">
        <ele>5.6</ele>
        <time>2013-07-15T07:03:23Z</time>
      </trkpt>
      <trkpt lat="47.8918" lon="-3.94465">
        <ele>2</ele>
        <time>2013-07-15T07:03:43Z</time>
      </trkpt>
      <trkpt lat="47.89195" lon="-3.94469">
        <ele>6</ele>
        <time>2013-07-15T07:03:55Z</time>
      </trkpt>
      <trkpt lat="47.89206" lon="-3.94457">
        <ele>2</ele>
        <time>2013-07-15T07:04:08Z</time>
      </trkpt>
      <trkpt lat="47.89212" lon="-3.94449">
        <ele>1</ele>
        <time>2013-07-15T07:04:20Z</time>
      </trkpt>
      <trkpt lat="47.89216" lon="-3.94445">
        <ele>1</ele>
        <time>2013-07-15T07:04:33Z</time>
      </trkpt>
      <trkpt lat="47.89221" lon="-3.94437">
        <ele>2</ele>
        <time>2013-07-15T07:04:39Z</time>
      </trkpt>
      <trkpt lat="47.89231" lon="-3.94417">
        <ele>2</ele>
        <time>2013-07-15T07:04:53Z</time>
      </trkpt>
      <trkpt lat="47.89244" lon="-3.94405">
        <ele>2</ele>
        <time>2013-07-15T07:05:04Z</time>
      </trkpt>
      <trkpt lat="47.8926" lon="-3.944">
        <ele>2</ele>
        <time>2013-07-15T07:05:20Z</time>
      </trkpt>
      <trkpt lat="47.8928" lon="-3.94385">
        <ele>8.3</ele>
        <time>2013-07-15T07:05:35Z</time>
      </trkpt>
      <trkpt lat="47.89287" lon="-3.94376">
        <ele>-2</ele>
        <time>2013-07-15T07:05:48Z</time>
      </trkpt>
      <trkpt lat="47.8929" lon="-3.94387">
        <ele>-4</ele>
        <time>2013-07-15T07:06:05Z</time>
      </trkpt>
      <trkpt lat="47.89291" lon="-3.94376">
        <ele>-2</ele>
        <time>2013-07-15T07:06:20Z</time>
      </trkpt>
      <trkpt lat="47.89284" lon="-3.94369">
        <ele>-2</ele>
        <time>2013-07-15T07:06:45Z</time>
      </trkpt>
      <trkpt lat="47.89286" lon="-3.9437">
        <ele>-1</ele>
        <time>2013-07-15T07:07:03Z</time>
      </trkpt>
      <trkpt lat="47.89291" lon="-3.94345">
        <ele>7.2</ele>
        <time>2013-07-15T07:07:20Z</time>
      </trkpt>
      <trkpt lat="47.893" lon="-3.94312">
        <ele>7.5</ele>
        <time>2013-07-15T07:07:38Z</time>
      </trkpt>
      <trkpt lat="47.89309" lon="-3.94293">
        <ele>8.5</ele>
        <time>2013-07-15T07:07:57Z</time>
      </trkpt>
      <trkpt lat="47.89333" lon="-3.94292">
        <ele>6.4</ele>
        <time>2013-07-15T07:08:13Z</time>
      </trkpt>
      <trkpt lat="47.89337" lon="-3.9429">
        <ele>6.8</ele>
        <time>2013-07-15T07:08:25Z</time>
      </trkpt>
      <trkpt lat="47.89352" lon="-3.94281">
        <ele>7.5</ele>
        <time>2013-07-15T07:08:38Z</time>
      </trkpt>
      <trkpt lat="47.89364" lon="-3.94274">
        <ele>7.5</ele>
        <time>2013-07-15T07:08:52Z</time>
      </trkpt>
      <trkpt lat="47.89378" lon="-3.94265">
        <ele>7.9</ele>
        <time>2013-07-15T07:09:02Z</time>
      </trkpt>
      <trkpt lat="47.89393" lon="-3.94236">
        <ele>-1</ele>
        <time>2013-07-15T07:09:25Z</time>
      </trkpt>
      <trkpt lat="47.89398" lon="-3.94196">
        <ele>-1</ele>
        <time>2013-07-15T07:09:46Z</time>
      </trkpt>
      <trkpt lat="47.89397" lon="-3.94146">
        <ele>11</ele>
        <time>2013-07-15T07:10:09Z</time>
      </trkpt>
      <trkpt lat="47.89405" lon="-3.941">
        <ele>1</ele>
        <time>2013-07-15T07:10:34Z</time>
      </trkpt>
      <trkpt lat="47.89421" lon="-3.94085">
        <ele>4</ele>
        <time>2013-07-15T07:10:48Z</time>
      </trkpt>
      <trkpt lat="47.89435" lon="-3.9409">
        <ele>5</ele>
        <time>2013-07-15T07:11:02Z</time>
      </trkpt>
      <trkpt lat="47.89451" lon="-3.94113">
        <ele>4</ele>
        <time>2013-07-15T07:11:18Z</time>
      </trkpt>
      <trkpt lat="47.89455" lon="-3.94121">
        <ele>4</ele>
        <time>2013-07-15T07:11:37Z</time>
      </trkpt>
      <trkpt lat="47.89469" lon="-3.94136">
        <ele>4</ele>
        <time>2013-07-15T07:11:55Z</time>
      </trkpt>
      <trkpt lat="47.89486" lon="-3.94158">
        <ele>5</ele>
        <time>2013-07-15T07:12:08Z</time>
      </trkpt>
      <trkpt lat="47.89495" lon="-3.94168">
        <ele>6</ele>
        <time>2013-07-15T07:12:22Z</time>
      </trkpt>
      <trkpt lat="47.89498" lon="-3.94188">
        <ele>9</ele>
        <time>2013-07-15T07:12:35Z</time>
      </trkpt>
      <trkpt lat="47.89493" lon="-3.94208">
        <ele>12</ele>
        <time>2013-07-15T07:12:48Z</time>
      </trkpt>
      <trkpt lat="47.89493" lon="-3.94243">
        <ele>13</ele>
        <time>2013-07-15T07:13:07Z</time>
      </trkpt>
      <trkpt lat="47.89487" lon="-3.9427">
        <ele>12</ele>
        <time>2013-07-15T07:13:26Z</time>
      </trkpt>
      <trkpt lat="47.89481" lon="-3.94277">
        <ele>9</ele>
        <time>2013-07-15T07:13:35Z</time>
      </trkpt>
      <trkpt lat="47.89472" lon="-3.9429">
        <ele>6</ele>
        <time>2013-07-15T07:13:46Z</time>
      </trkpt>
      <trkpt lat="47.89461" lon="-3.94306">
        <ele>3</ele>
        <time>2013-07-15T07:14:01Z</time>
      </trkpt>
      <trkpt lat="47.89454" lon="-3.94313">
        <ele>7.2</ele>
        <time>2013-07-15T07:14:12Z</time>
      </trkpt>
      <trkpt lat="47.89454" lon="-3.94333">
        <ele>-1</ele>
        <time>2013-07-15T07:14:27Z</time>
      </trkpt>
      <trkpt lat="47.89438" lon="-3.94348">
        <ele>-2</ele>
        <time>2013-07-15T07:14:42Z</time>
      </trkpt>
      <trkpt lat="47.89424" lon="-3.94362">
        <ele>-2</ele>
        <time>2013-07-15T07:14:56Z</time>
      </trkpt>
      <trkpt lat="47.8941" lon="-3.94373">
        <ele>-2</ele>
        <time>2013-07-15T07:15:09Z</time>
      </trkpt>
      <trkpt lat="47.89394" lon="-3.94383">
        <ele>-2</ele>
        <time>2013-07-15T07:15:24Z</time>
      </trkpt>
      <trkpt lat="47.89374" lon="-3.94394">
        <ele>-1</ele>
        <time>2013-07-15T07:15:41Z</time>
      </trkpt>
      <trkpt lat="47.89349" lon="-3.94406">
        <ele>-2</ele>
        <time>2013-07-15T07:16:01Z</time>
      </trkpt>
      <trkpt lat="47.89337" lon="-3.94432">
        <ele>-1</ele>
        <time>2013-07-15T07:16:19Z</time>
      </trkpt>
      <trkpt lat="47.8933" lon="-3.94451">
        <ele>9.1</ele>
        <time>2013-07-15T07:16:40Z</time>
      </trkpt>
      <trkpt lat="47.89329" lon="-3.9446">
        <ele>4</ele>
        <time>2013-07-15T07:16:51Z</time>
      </trkpt>
      <trkpt lat="47.89329" lon="-3.9449">
        <ele>4</ele>
        <time>2013-07-15T07:17:13Z</time>
      </trkpt>
      <trkpt lat="47.89329" lon="-3.945">
        <ele>2</ele>
        <time>2013-07-15T07:17:35Z</time>
      </trkpt>
      <trkpt lat="47.89315" lon="-3.94512">
        <ele>1</ele>
        <time>2013-07-15T07:17:57Z</time>
      </trkpt>
      <trkpt lat="47.89265" lon="-3.94518">
        <ele>-3</ele>
        <time>2013-07-15T07:18:18Z</time>
      </trkpt>
      <trkpt lat="47.89249" lon="-3.94557">
        <ele>-2</ele>
        <time>2013-07-15T07:18:37Z</time>
      </trkpt>
      <trkpt lat="47.89236" lon="-3.94565">
        <ele>-2</ele>
        <time>2013-07-15T07:18:50Z</time>
      </trkpt>
      <trkpt lat="47.89222" lon="-3.9458">
        <ele>-1</ele>
        <time>2013-07-15T07:19:06Z</time>
      </trkpt>
      <trkpt lat="47.8921" lon="-3.94592">
        <ele>1</ele>
        <time>2013-07-15T07:19:18Z</time>
      </trkpt>
      <trkpt lat="47.89193" lon="-3.94599">
        <ele>-1</ele>
        <time>2013-07-15T07:19:33Z</time>
      </trkpt>
      <trkpt lat="47.89174" lon="-3.94609">
        <ele>-2</ele>
        <time>2013-07-15T07:19:48Z</time>
      </trkpt>
      <trkpt lat="47.89165" lon="-3.94628">
        <ele>9.4</ele>
        <time>2013-07-15T07:20:04Z</time>
      </trkpt>
      <trkpt lat="47.8916" lon="-3.94649">
        <ele>3</ele>
        <time>2013-07-15T07:20:21Z</time>
      </trkpt>
      <trkpt lat="47.89151" lon="-3.94659">
        <ele>2</ele>
        <time>2013-07-15T07:20:32Z</time>
      </trkpt>
      <trkpt lat="47.89149" lon="-3.94661">
        <ele>1</ele>
        <time>2013-07-15T07:20:34Z</time>
      </trkpt>
      <trkpt lat="47.89145" lon="-3.94667">
        <ele>9</ele>
        <time>2013-07-15T07:20:39Z</time>
      </trkpt>
      <trkpt lat="47.89137" lon="-3.94683">
        <ele>8.8</ele>
        <time>2013-07-15T07:20:49Z</time>
      </trkpt>
      <trkpt lat="47.89136" lon="-3.9469">
        <ele>-1</ele>
        <time>2013-07-15T07:20:53Z</time>
      </trkpt>
      <trkpt lat="47.89139" lon="-3.94708">
        <ele>2</ele>
        <time>2013-07-15T07:21:06Z</time>
      </trkpt>
      <trkpt lat="47.89145" lon="-3.94721">
        <ele>4</ele>
        <time>2013-07-15T07:21:19Z</time>
      </trkpt>
      <trkpt lat="47.89149" lon="-3.94729">
        <ele>4</ele>
        <time>2013-07-15T07:21:36Z</time>
      </trkpt>
      <trkpt lat="47.89141" lon="-3.94753">
        <ele>3</ele>
        <time>2013-07-15T07:21:51Z</time>
      </trkpt>
      <trkpt lat="47.89139" lon="-3.94771">
        <ele>2</ele>
        <time>2013-07-15T07:22:03Z</time>
      </trkpt>
      <trkpt lat="47.89135" lon="-3.94787">
        <ele>2</ele>
        <time>2013-07-15T07:22:12Z</time>
      </trkpt>
      <trkpt lat="47.89133" lon="-3.94801">
        <ele>2</ele>
        <time>2013-07-15T07:22:21Z</time>
      </trkpt>
      <trkpt lat="47.89117" lon="-3.94833">
        <ele>2</ele>
        <time>2013-07-15T07:22:36Z</time>
      </trkpt>
      <trkpt lat="47.89105" lon="-3.94854">
        <ele>1</ele>
        <time>2013-07-15T07:22:49Z</time>
      </trkpt>
      <trkpt lat="47.89098" lon="-3.94872">
        <ele>1</ele>
        <time>2013-07-15T07:23:01Z</time>
      </trkpt>
      <trkpt lat="47.89095" lon="-3.94887">
        <ele>1</ele>
        <time>2013-07-15T07:23:10Z</time>
      </trkpt>
      <trkpt lat="47.89083" lon="-3.94914">
        <ele>8.7</ele>
        <time>2013-07-15T07:23:27Z</time>
      </trkpt>
      <trkpt lat="47.89067" lon="-3.94937">
        <ele>-1</ele>
        <time>2013-07-15T07:23:43Z</time>
      </trkpt>
      <trkpt lat="47.89063" lon="-3.94939">
        <ele>-2</ele>
        <time>2013-07-15T07:23:56Z</time>
      </trkpt>
      <trkpt lat="47.89059" lon="-3.94941">
        <ele>-2</ele>
        <time>2013-07-15T07:24:12Z</time>
      </trkpt>
      <trkpt lat="47.89062" lon="-3.94942">
        <ele>-2</ele>
        <time>2013-07-15T07:24:26Z</time>
      </trkpt>
      <trkpt lat="47.89064" lon="-3.94942">
        <ele>-1</ele>
        <time>2013-07-15T07:24:39Z</time>
      </trkpt>
      <trkpt lat="47.8907" lon="-3.94932">
        <ele>5.4</ele>
        <time>2013-07-15T07:24:59Z</time>
      </trkpt>
      <trkpt lat="47.89071" lon="-3.94939">
        <ele>5.9</ele>
        <time>2013-07-15T07:25:04Z</time>
      </trkpt>
      <trkpt lat="47.89079" lon="-3.94954">
        <ele>6.2</ele>
        <time>2013-07-15T07:25:16Z</time>
      </trkpt>
      <trkpt lat="47.89096" lon="-3.94959">
        <ele>1</ele>
        <time>2013-07-15T07:25:31Z</time>
      </trkpt>
      <trkpt lat="47.89122" lon="-3.94956">
        <ele>1</ele>
        <time>2013-07-15T07:25:53Z</time>
      </trkpt>
      <trkpt lat="47.89139" lon="-3.94931">
        <ele>3</ele>
        <time>2013-07-15T07:26:14Z</time>
      </trkpt>
      <trkpt lat="47.89159" lon="-3.94903">
        <ele>3</ele>
        <time>2013-07-15T07:26:36Z</time>
      </trkpt>
      <trkpt lat="47.8917" lon="-3.949">
        <ele>3</ele>
        <time>2013-07-15T07:26:51Z</time>
      </trkpt>
      <trkpt lat="47.89187" lon="-3.9491">
        <ele>4</ele>
        <time>2013-07-15T07:27:05Z</time>
      </trkpt>
      <trkpt lat="47.89195" lon="-3.94915">
        <ele>4</ele>
        <time>2013-07-15T07:27:11Z</time>
      </trkpt>
      <trkpt lat="47.892" lon="-3.94923">
        <ele>4</ele>
        <time>2013-07-15T07:27:25Z</time>
      </trkpt>
      <trkpt lat="47.89201" lon="-3.94924">
        <ele>4</ele>
        <time>2013-07-15T07:27:26Z</time>
      </trkpt>
      <trkpt lat="47.89217" lon="-3.94934">
        <ele>4</ele>
        <time>2013-07-15T07:27:37Z</time>
      </trkpt>
      <trkpt lat="47.89228" lon="-3.9494">
        <ele>4</ele>
        <time>2013-07-15T07:27:46Z</time>
      </trkpt>
      <trkpt lat="47.8925" lon="-3.94952">
        <ele>5</ele>
        <time>2013-07-15T07:28:03Z</time>
      </trkpt>
      <trkpt lat="47.89263" lon="-3.94958">
        <ele>4</ele>
        <time>2013-07-15T07:28:16Z</time>
      </trkpt>
      <trkpt lat="47.89278" lon="-3.94954">
        <ele>5</ele>
        <time>2013-07-15T07:28:29Z</time>
      </trkpt>
      <trkpt lat="47.89297" lon="-3.9495">
        <ele>4</ele>
        <time>2013-07-15T07:28:43Z</time>
      </trkpt>
      <trkpt lat="47.89308" lon="-3.94948">
        <ele>4</ele>
        <time>2013-07-15T07:28:53Z</time>
      </trkpt>
      <trkpt lat="47.89319" lon="-3.94941">
        <ele>3</ele>
        <time>2013-07-15T07:29:05Z</time>
      </trkpt>
      <trkpt lat="47.89328" lon="-3.9494">
        <ele>2</ele>
        <time>2013-07-15T07:29:15Z</time>
      </trkpt>
      <trkpt lat="47.89328" lon="-3.94934">
        <ele>3</ele>
        <time>2013-07-15T07:29:29Z</time>
      </trkpt>
      <trkpt lat="47.89333" lon="-3.94917">
        <ele>3</ele>
        <time>2013-07-15T07:29:41Z</time>
      </trkpt>
      <trkpt lat="47.89344" lon="-3.94904">
        <ele>2</ele>
        <time>2013-07-15T07:29:53Z</time>
      </trkpt>
      <trkpt lat="47.89353" lon="-3.94887">
        <ele>1</ele>
        <time>2013-07-15T07:30:04Z</time>
      </trkpt>
      <trkpt lat="47.89361" lon="-3.94869">
        <ele>1</ele>
        <time>2013-07-15T07:30:16Z</time>
      </trkpt>
      <trkpt lat="47.89357" lon="-3.94845">
        <ele>2</ele>
        <time>2013-07-15T07:30:32Z</time>
      </trkpt>
      <trkpt lat="47.89367" lon="-3.94827">
        <ele>1</ele>
        <time>2013-07-15T07:30:43Z</time>
      </trkpt>
      <trkpt lat="47.8937" lon="-3.94806">
        <ele>2</ele>
        <time>2013-07-15T07:30:57Z</time>
      </trkpt>
      <trkpt lat="47.8939" lon="-3.94789">
        <ele>1</ele>
        <time>2013-07-15T07:31:13Z</time>
      </trkpt>
      <trkpt lat="47.89412" lon="-3.94779">
        <ele>1</ele>
        <time>2013-07-15T07:31:28Z</time>
      </trkpt>
      <trkpt lat="47.89434" lon="-3.94772">
        <ele>2</ele>
        <time>2013-07-15T07:31:46Z</time>
      </trkpt>
      <trkpt lat="47.89455" lon="-3.9476">
        <ele>3</ele>
        <time>2013-07-15T07:32:02Z</time>
      </trkpt>
      <trkpt lat="47.89466" lon="-3.94757">
        <ele>3</ele>
        <time>2013-07-15T07:32:11Z</time>
      </trkpt>
      <trkpt lat="47.89483" lon="-3.94749">
        <ele>2</ele>
        <time>2013-07-15T07:32:24Z</time>
      </trkpt>
      <trkpt lat="47.89495" lon="-3.94741">
        <ele>2</ele>
        <time>2013-07-15T07:32:37Z</time>
      </trkpt>
      <trkpt lat="47.89514" lon="-3.94723">
        <ele>2</ele>
        <time>2013-07-15T07:32:54Z</time>
      </trkpt>
      <trkpt lat="47.8953" lon="-3.94707">
        <ele>3</ele>
        <time>2013-07-15T07:33:08Z</time>
      </trkpt>
      <trkpt lat="47.89537" lon="-3.94704">
        <ele>2</ele>
        <time>2013-07-15T07:33:25Z</time>
      </trkpt>
      <trkpt lat="47.89548" lon="-3.94704">
        <ele>2</ele>
        <time>2013-07-15T07:33:37Z</time>
      </trkpt>
      <trkpt lat="47.8957" lon="-3.9471">
        <ele>2</ele>
        <time>2013-07-15T07:33:52Z</time>
      </trkpt>
      <trkpt lat="47.89579" lon="-3.94715">
        <ele>1</ele>
        <time>2013-07-15T07:34:02Z</time>
      </trkpt>
      <trkpt lat="47.89585" lon="-3.94709">
        <ele>2</ele>
        <time>2013-07-15T07:34:13Z</time>
      </trkpt>
      <trkpt lat="47.8959" lon="-3.94706">
        <ele>2</ele>
        <time>2013-07-15T07:34:18Z</time>
      </trkpt>
      <trkpt lat="47.89595" lon="-3.94697">
        <ele>2</ele>
        <time>2013-07-15T07:34:26Z</time>
      </trkpt>
      <trkpt lat="47.89607" lon="-3.94686">
        <ele>1</ele>
        <time>2013-07-15T07:34:39Z</time>
      </trkpt>
      <trkpt lat="47.89614" lon="-3.94684">
        <ele>1</ele>
        <time>2013-07-15T07:34:49Z</time>
      </trkpt>
      <trkpt lat="47.89625" lon="-3.94686">
        <ele>6.6</ele>
        <time>2013-07-15T07:34:57Z</time>
      </trkpt>
      <trkpt lat="47.8964" lon="-3.94678">
        <ele>6</ele>
        <time>2013-07-15T07:35:13Z</time>
      </trkpt>
      <trkpt lat="47.89658" lon="-3.94677">
        <ele>1</ele>
        <time>2013-07-15T07:35:29Z</time>
      </trkpt>
      <trkpt lat="47.89683" lon="-3.94682">
        <ele>3</ele>
        <time>2013-07-15T07:35:49Z</time>
      </trkpt>
      <trkpt lat="47.89696" lon="-3.94694">
        <ele>2</ele>
        <time>2013-07-15T07:35:57Z</time>
      </trkpt>
      <trkpt lat="47.89704" lon="-3.9471">
        <ele>2</ele>
        <time>2013-07-15T07:36:08Z</time>
      </trkpt>
      <trkpt lat="47.89729" lon="-3.9473">
        <ele>2</ele>
        <time>2013-07-15T07:36:30Z</time>
      </trkpt>
      <trkpt lat="47.89732" lon="-3.94729">
        <ele>2</ele>
        <time>2013-07-15T07:36:32Z</time>
      </trkpt>
      <trkpt lat="47.89754" lon="-3.94735">
        <ele>3</ele>
        <time>2013-07-15T07:36:52Z</time>
      </trkpt>
      <trkpt lat="47.89751" lon="-3.94738">
        <ele>3</ele>
        <time>2013-07-15T07:37:09Z</time>
      </trkpt>
      <trkpt lat="47.89753" lon="-3.9473">
        <ele>4</ele>
        <time>2013-07-15T07:37:16Z</time>
      </trkpt>
      <trkpt lat="47.89766" lon="-3.94711">
        <ele>6</ele>
        <time>2013-07-15T07:37:30Z</time>
      </trkpt>
      <trkpt lat="47.89789" lon="-3.94715">
        <ele>5</ele>
        <time>2013-07-15T07:37:51Z</time>
      </trkpt>
      <trkpt lat="47.89813" lon="-3.94723">
        <ele>4</ele>
        <time>2013-07-15T07:38:06Z</time>
      </trkpt>
      <trkpt lat="47.89833" lon="-3.94736">
        <ele>11.1</ele>
        <time>2013-07-15T07:38:26Z</time>
      </trkpt>
      <trkpt lat="47.89851" lon="-3.9475">
        <ele>-1</ele>
        <time>2013-07-15T07:38:46Z</time>
      </trkpt>
      <trkpt lat="47.89869" lon="-3.94736">
        <ele>-1</ele>
        <time>2013-07-15T07:39:02Z</time>
      </trkpt>
      <trkpt lat="47.8989" lon="-3.94733">
        <ele>-2</ele>
        <time>2013-07-15T07:39:19Z</time>
      </trkpt>
      <trkpt lat="47.89912" lon="-3.94729">
        <ele>-1</ele>
        <time>2013-07-15T07:39:37Z</time>
      </trkpt>
      <trkpt lat="47.89935" lon="-3.94717">
        <ele>-1</ele>
        <time>2013-07-15T07:39:57Z</time>
      </trkpt>
      <trkpt lat="47.89956" lon="-3.94704">
        <ele>7.8</ele>
        <time>2013-07-15T07:40:20Z</time>
      </trkpt>
      <trkpt lat="47.89974" lon="-3.94719">
        <ele>-2</ele>
        <time>2013-07-15T07:40:37Z</time>
      </trkpt>
      <trkpt lat="47.89992" lon="-3.94715">
        <ele>-1</ele>
        <time>2013-07-15T07:40:49Z</time>
      </trkpt>
      <trkpt lat="47.89995" lon="-3.94714">
        <ele>-1</ele>
        <time>2013-07-15T07:40:53Z</time>
      </trkpt>
      <trkpt lat="47.90013" lon="-3.94704">
        <ele>-1</ele>
        <time>2013-07-15T07:41:09Z</time>
      </trkpt>
      <trkpt lat="47.90027" lon="-3.94696">
        <ele>-1</ele>
        <time>2013-07-15T07:41:24Z</time>
      </trkpt>
      <trkpt lat="47.90032" lon="-3.94694">
        <ele>-2</ele>
        <time>2013-07-15T07:41:27Z</time>
      </trkpt>
      <trkpt lat="47.90052" lon="-3.9468">
        <ele>-1</ele>
        <time>2013-07-15T07:41:42Z</time>
      </trkpt>
      <trkpt lat="47.9007" lon="-3.94674">
        <ele>-2</ele>
        <time>2013-07-15T07:41:57Z</time>
      </trkpt>
      <trkpt lat="47.90089" lon="-3.94663">
        <ele>8</ele>
        <time>2013-07-15T07:42:16Z</time>
      </trkpt>
      <trkpt lat="47.90106" lon="-3.94639">
        <ele>3</ele>
        <time>2013-07-15T07:42:32Z</time>
      </trkpt>
      <trkpt lat="47.90121" lon="-3.94627">
        <ele>1</ele>
        <time>2013-07-15T07:42:47Z</time>
      </trkpt>
      <trkpt lat="47.90135" lon="-3.94617">
        <ele>-1</ele>
        <time>2013-07-15T07:43:05Z</time>
      </trkpt>
      <trkpt lat="47.90155" lon="-3.94602">
        <ele>-1</ele>
        <time>2013-07-15T07:43:24Z</time>
      </trkpt>
      <trkpt lat="47.90175" lon="-3.94589">
        <ele>7.6</ele>
        <time>2013-07-15T07:43:42Z</time>
      </trkpt>
      <trkpt lat="47.90188" lon="-3.94585">
        <ele>-1</ele>
        <time>2013-07-15T07:43:53Z</time>
      </trkpt>
      <trkpt lat="47.90191" lon="-3.94584">
        <ele>-1</ele>
        <time>2013-07-15T07:44:03Z</time>
      </trkpt>
      <trkpt lat="47.90205" lon="-3.94583">
        <ele>-1</ele>
        <time>2013-07-15T07:44:12Z</time>
      </trkpt>
      <trkpt lat="47.90209" lon="-3.94582">
        <ele>-1</ele>
        <time>2013-07-15T07:44:16Z</time>
      </trkpt>
      <trkpt lat="47.90226" lon="-3.9457">
        <ele>5.8</ele>
        <time>2013-07-15T07:44:31Z</time>
      </trkpt>
      <trkpt lat="47.90229" lon="-3.94569">
        <ele>5.9</ele>
        <time>2013-07-15T07:44:33Z</time>
      </trkpt>
      <trkpt lat="47.90237" lon="-3.9456">
        <ele>7.1</ele>
        <time>2013-07-15T07:44:44Z</time>
      </trkpt>
      <trkpt lat="47.90254" lon="-3.94542">
        <ele>1</ele>
        <time>2013-07-15T07:44:58Z</time>
      </trkpt>
      <trkpt lat="47.90268" lon="-3.94535">
        <ele>1</ele>
        <time>2013-07-15T07:45:12Z</time>
      </trkpt>
      <trkpt lat="47.90289" lon="-3.94526">
        <ele>1</ele>
        <time>2013-07-15T07:45:25Z</time>
      </trkpt>
      <trkpt lat="47.90305" lon="-3.94523">
        <ele>2</ele>
        <time>2013-07-15T07:45:36Z</time>
      </trkpt>
      <trkpt lat="47.90322" lon="-3.94522">
        <ele>2</ele>
        <time>2013-07-15T07:45:50Z</time>
      </trkpt>
      <trkpt lat="47.90331" lon="-3.94519">
        <ele>2</ele>
        <time>2013-07-15T07:46:05Z</time>
      </trkpt>
      <trkpt lat="47.90343" lon="-3.94509">
        <ele>3</ele>
        <time>2013-07-15T07:46:19Z</time>
      </trkpt>
      <trkpt lat="47.90345" lon="-3.94508">
        <ele>4</ele>
        <time>2013-07-15T07:46:22Z</time>
      </trkpt>
      <trkpt lat="47.90355" lon="-3.9451">
        <ele>5</ele>
        <time>2013-07-15T07:46:30Z</time>
      </trkpt>
      <trkpt lat="47.90365" lon="-3.94509">
        <ele>5</ele>
        <time>2013-07-15T07:46:40Z</time>
      </trkpt>
      <trkpt lat="47.90379" lon="-3.94513">
        <ele>5</ele>
        <time>2013-07-15T07:46:49Z</time>
      </trkpt>
      <trkpt lat="47.90398" lon="-3.94518">
        <ele>4</ele>
        <time>2013-07-15T07:47:03Z</time>
      </trkpt>
      <trkpt lat="47.90406" lon="-3.9452">
        <ele>4</ele>
        <time>2013-07-15T07:47:08Z</time>
      </trkpt>
      <trkpt lat="47.90426" lon="-3.94526">
        <ele>3</ele>
        <time>2013-07-15T07:47:21Z</time>
      </trkpt>
      <trkpt lat="47.90434" lon="-3.94527">
        <ele>3</ele>
        <time>2013-07-15T07:47:27Z</time>
      </trkpt>
      <trkpt lat="47.90446" lon="-3.9453">
        <ele>2</ele>
        <time>2013-07-15T07:47:36Z</time>
      </trkpt>
      <trkpt lat="47.90463" lon="-3.94535">
        <ele>2</ele>
        <time>2013-07-15T07:47:48Z</time>
      </trkpt>
      <trkpt lat="47.90475" lon="-3.94542">
        <ele>2</ele>
        <time>2013-07-15T07:48:00Z</time>
      </trkpt>
      <trkpt lat="47.90484" lon="-3.94547">
        <ele>1</ele>
        <time>2013-07-15T07:48:08Z</time>
      </trkpt>
      <trkpt lat="47.90489" lon="-3.94549">
        <ele>1</ele>
        <time>2013-07-15T07:48:11Z</time>
      </trkpt>
      <trkpt lat="47.90498" lon="-3.9456">
        <ele>-2</ele>
        <time>2013-07-15T07:48:25Z</time>
      </trkpt>
      <trkpt lat="47.905" lon="-3.94566">
        <ele>-3</ele>
        <time>2013-07-15T07:48:36Z</time>
      </trkpt>
      <trkpt lat="47.905" lon="-3.94568">
        <ele>-3</ele>
        <time>2013-07-15T07:48:51Z</time>
      </trkpt>
      <trkpt lat="47.905" lon="-3.94571">
        <ele>-3</ele>
        <time>2013-07-15T07:49:12Z</time>
      </trkpt>
      <trkpt lat="47.90516" lon="-3.94584">
        <ele>-2</ele>
        <time>2013-07-15T07:49:28Z</time>
      </trkpt>
      <trkpt lat="47.90516" lon="-3.94585">
        <ele>-3</ele>
        <time>2013-07-15T07:49:29Z</time>
      </trkpt>
      <trkpt lat="47.90507" lon="-3.94608">
        <ele>-3</ele>
        <time>2013-07-15T07:49:43Z</time>
      </trkpt>
      <trkpt lat="47.90494" lon="-3.94609">
        <ele>-2</ele>
        <time>2013-07-15T07:49:57Z</time>
      </trkpt>
      <trkpt lat="47.90477" lon="-3.94606">
        <ele>-3</ele>
        <time>2013-07-15T07:50:10Z</time>
      </trkpt>
      <trkpt lat="47.9047" lon="-3.94619">
        <ele>-2</ele>
        <time>2013-07-15T07:50:18Z</time>
      </trkpt>
      <trkpt lat="47.90462" lon="-3.94623">
        <ele>-2</ele>
        <time>2013-07-15T07:50:35Z</time>
      </trkpt>
      <trkpt lat="47.90465" lon="-3.94624">
        <ele>-2</ele>
        <time>2013-07-15T07:50:44Z</time>
      </trkpt>
      <trkpt lat="47.90461" lon="-3.94629">
        <ele>-2</ele>
        <time>2013-07-15T07:50:48Z</time>
      </trkpt>
      <trkpt lat="47.90443" lon="-3.94655">
        <ele>-1</ele>
        <time>2013-07-15T07:51:07Z</time>
      </trkpt>
      <trkpt lat="47.90426" lon="-3.9468">
        <ele>1</ele>
        <time>2013-07-15T07:51:26Z</time>
      </trkpt>
      <trkpt lat="47.90417" lon="-3.94699">
        <ele>3</ele>
        <time>2013-07-15T07:51:43Z</time>
      </trkpt>
      <trkpt lat="47.90407" lon="-3.94698">
        <ele>1</ele>
        <time>2013-07-15T07:52:02Z</time>
      </trkpt>
      <trkpt lat="47.90388" lon="-3.94703">
        <ele>1</ele>
        <time>2013-07-15T07:52:17Z</time>
      </trkpt>
      <trkpt lat="47.90372" lon="-3.94704">
        <ele>3</ele>
        <time>2013-07-15T07:52:31Z</time>
      </trkpt>
      <trkpt lat="47.9037" lon="-3.94698">
        <ele>2</ele>
        <time>2013-07-15T07:52:47Z</time>
      </trkpt>
      <trkpt lat="47.90364" lon="-3.947">
        <ele>5.1</ele>
        <time>2013-07-15T07:53:00Z</time>
      </trkpt>
      <trkpt lat="47.90359" lon="-3.94703">
        <ele>6.1</ele>
        <time>2013-07-15T07:53:13Z</time>
      </trkpt>
      <trkpt lat="47.90353" lon="-3.94705">
        <ele>4</ele>
        <time>2013-07-15T07:53:24Z</time>
      </trkpt>
      <trkpt lat="47.90349" lon="-3.94705">
        <ele>4</ele>
        <time>2013-07-15T07:53:27Z</time>
      </trkpt>
      <trkpt lat="47.90338" lon="-3.94705">
        <ele>4</ele>
        <time>2013-07-15T07:53:34Z</time>
      </trkpt>
      <trkpt lat="47.90331" lon="-3.94702">
        <ele>3</ele>
        <time>2013-07-15T07:53:39Z</time>
      </trkpt>
      <trkpt lat="47.90313" lon="-3.94691">
        <ele>1</ele>
        <time>2013-07-15T07:53:51Z</time>
      </trkpt>
      <trkpt lat="47.90311" lon="-3.94692">
        <ele>2</ele>
        <time>2013-07-15T07:53:52Z</time>
      </trkpt>
      <trkpt lat="47.90303" lon="-3.94688">
        <ele>2</ele>
        <time>2013-07-15T07:54:00Z</time>
      </trkpt>
      <trkpt lat="47.9029" lon="-3.94683">
        <ele>1</ele>
        <time>2013-07-15T07:54:13Z</time>
      </trkpt>
      <trkpt lat="47.90278" lon="-3.94682">
        <ele>-1</ele>
        <time>2013-07-15T07:54:26Z</time>
      </trkpt>
      <trkpt lat="47.9027" lon="-3.94684">
        <ele>6.1</ele>
        <time>2013-07-15T07:54:32Z</time>
      </trkpt>
      <trkpt lat="47.90266" lon="-3.94687">
        <ele>6.6</ele>
        <time>2013-07-15T07:54:34Z</time>
      </trkpt>
      <trkpt lat="47.90241" lon="-3.94693">
        <ele>6.4</ele>
        <time>2013-07-15T07:54:51Z</time>
      </trkpt>
      <trkpt lat="47.90225" lon="-3.94696">
        <ele>-1</ele>
        <time>2013-07-15T07:55:04Z</time>
      </trkpt>
      <trkpt lat="47.90213" lon="-3.94712">
        <ele>1</ele>
        <time>2013-07-15T07:55:19Z</time>
      </trkpt>
      <trkpt lat="47.90191" lon="-3.94716">
        <ele>6.2</ele>
        <time>2013-07-15T07:55:34Z</time>
      </trkpt>
      <trkpt lat="47.90165" lon="-3.94727">
        <ele>6.8</ele>
        <time>2013-07-15T07:55:56Z</time>
      </trkpt>
      <trkpt lat="47.90142" lon="-3.9474">
        <ele>6.4</ele>
        <time>2013-07-15T07:56:11Z</time>
      </trkpt>
      <trkpt lat="47.90127" lon="-3.94751">
        <ele>5.8</ele>
        <time>2013-07-15T07:56:26Z</time>
      </trkpt>
      <trkpt lat="47.90114" lon="-3.94764">
        <ele>5.6</ele>
        <time>2013-07-15T07:56:40Z</time>
      </trkpt>
      <trkpt lat="47.90112" lon="-3.94767">
        <ele>1</ele>
        <time>2013-07-15T07:56:42Z</time>
      </trkpt>
      <trkpt lat="47.90099" lon="-3.94785">
        <ele>3</ele>
        <time>2013-07-15T07:56:57Z</time>
      </trkpt>
      <trkpt lat="47.90078" lon="-3.94801">
        <ele>1</ele>
        <time>2013-07-15T07:57:13Z</time>
      </trkpt>
      <trkpt lat="47.90068" lon="-3.94808">
        <ele>2</ele>
        <time>2013-07-15T07:57:28Z</time>
      </trkpt>
      <trkpt lat="47.90056" lon="-3.94815">
        <ele>2</ele>
        <time>2013-07-15T07:57:38Z</time>
      </trkpt>
      <trkpt lat="47.90035" lon="-3.94822">
        <ele>3</ele>
        <time>2013-07-15T07:57:50Z</time>
      </trkpt>
      <trkpt lat="47.90023" lon="-3.94818">
        <ele>3</ele>
        <time>2013-07-15T07:58:02Z</time>
      </trkpt>
      <trkpt lat="47.90018" lon="-3.94817">
        <ele>1</ele>
        <time>2013-07-15T07:58:09Z</time>
      </trkpt>
      <trkpt lat="47.90009" lon="-3.94818">
        <ele>1</ele>
        <time>2013-07-15T07:58:13Z</time>
      </trkpt>
      <trkpt lat="47.89996" lon="-3.94813">
        <ele>1</ele>
        <time>2013-07-15T07:58:24Z</time>
      </trkpt>
      <trkpt lat="47.89978" lon="-3.94818">
        <ele>5.8</ele>
        <time>2013-07-15T07:58:38Z</time>
      </trkpt>
      <trkpt lat="47.8996" lon="-3.94824">
        <ele>6.8</ele>
        <time>2013-07-15T07:58:49Z</time>
      </trkpt>
      <trkpt lat="47.89949" lon="-3.94826">
        <ele>1</ele>
        <time>2013-07-15T07:58:57Z</time>
      </trkpt>
      <trkpt lat="47.89944" lon="-3.94829">
        <ele>1</ele>
        <time>2013-07-15T07:59:00Z</time>
      </trkpt>
      <trkpt lat="47.8994" lon="-3.94833">
        <ele>1</ele>
        <time>2013-07-15T07:59:04Z</time>
      </trkpt>
      <trkpt lat="47.89935" lon="-3.94851">
        <ele>4</ele>
        <time>2013-07-15T07:59:19Z</time>
      </trkpt>
      <trkpt lat="47.89936" lon="-3.94854">
        <ele>4</ele>
        <time>2013-07-15T07:59:21Z</time>
      </trkpt>
      <trkpt lat="47.89938" lon="-3.94883">
        <ele>5</ele>
        <time>2013-07-15T07:59:36Z</time>
      </trkpt>
      <trkpt lat="47.8993" lon="-3.94909">
        <ele>3</ele>
        <time>2013-07-15T07:59:49Z</time>
      </trkpt>
      <trkpt lat="47.8993" lon="-3.94912">
        <ele>3</ele>
        <time>2013-07-15T07:59:51Z</time>
      </trkpt>
      <trkpt lat="47.89933" lon="-3.94927">
        <ele>1</ele>
        <time>2013-07-15T08:00:02Z</time>
      </trkpt>
      <trkpt lat="47.89927" lon="-3.94953">
        <ele>-2</ele>
        <time>2013-07-15T08:00:17Z</time>
      </trkpt>
      <trkpt lat="47.89912" lon="-3.94972">
        <ele>-2</ele>
        <time>2013-07-15T08:00:30Z</time>
      </trkpt>
      <trkpt lat="47.899" lon="-3.94986">
        <ele>-1</ele>
        <time>2013-07-15T08:00:45Z</time>
      </trkpt>
      <trkpt lat="47.89899" lon="-3.94986">
        <ele>-1</ele>
        <time>2013-07-15T08:00:46Z</time>
      </trkpt>
      <trkpt lat="47.89885" lon="-3.94989">
        <ele>4.3</ele>
        <time>2013-07-15T08:00:58Z</time>
      </trkpt>
      <trkpt lat="47.89881" lon="-3.95003">
        <ele>2</ele>
        <time>2013-07-15T08:01:08Z</time>
      </trkpt>
      <trkpt lat="47.89867" lon="-3.95028">
        <ele>3</ele>
        <time>2013-07-15T08:01:23Z</time>
      </trkpt>
      <trkpt lat="47.8986" lon="-3.95042">
        <ele>4</ele>
        <time>2013-07-15T08:01:33Z</time>
      </trkpt>
      <trkpt lat="47.89855" lon="-3.95049">
        <ele>4</ele>
        <time>2013-07-15T08:01:38Z</time>
      </trkpt>
      <trkpt lat="47.89846" lon="-3.95074">
        <ele>4</ele>
        <time>2013-07-15T08:01:52Z</time>
      </trkpt>
      <trkpt lat="47.89841" lon="-3.951">
        <ele>4</ele>
        <time>2013-07-15T08:02:07Z</time>
      </trkpt>
      <trkpt lat="47.89831" lon="-3.95122">
        <ele>2</ele>
        <time>2013-07-15T08:02:19Z</time>
      </trkpt>
      <trkpt lat="47.89822" lon="-3.95145">
        <ele>2</ele>
        <time>2013-07-15T08:02:32Z</time>
      </trkpt>
      <trkpt lat="47.8982" lon="-3.95146">
        <ele>2</ele>
        <time>2013-07-15T08:02:34Z</time>
      </trkpt>
      <trkpt lat="47.89806" lon="-3.95139">
        <ele>5</ele>
        <time>2013-07-15T08:02:47Z</time>
      </trkpt>
      <trkpt lat="47.89794" lon="-3.95141">
        <ele>4</ele>
        <time>2013-07-15T08:03:00Z</time>
      </trkpt>
      <trkpt lat="47.89796" lon="-3.95143">
        <ele>4</ele>
        <time>2013-07-15T08:03:09Z</time>
      </trkpt>
      <trkpt lat="47.89806" lon="-3.9514">
        <ele>5</ele>
        <time>2013-07-15T08:03:18Z</time>
      </trkpt>
      <trkpt lat="47.89819" lon="-3.95147">
        <ele>3</ele>
        <time>2013-07-15T08:03:31Z</time>
      </trkpt>
      <trkpt lat="47.89828" lon="-3.95134">
        <ele>3</ele>
        <time>2013-07-15T08:03:44Z</time>
      </trkpt>
      <trkpt lat="47.89841" lon="-3.95113">
        <ele>4</ele>
        <time>2013-07-15T08:04:00Z</time>
      </trkpt>
      <trkpt lat="47.89842" lon="-3.95109">
        <ele>4</ele>
        <time>2013-07-15T08:04:02Z</time>
      </trkpt>
      <trkpt lat="47.89845" lon="-3.95089">
        <ele>4</ele>
        <time>2013-07-15T08:04:10Z</time>
      </trkpt>
      <trkpt lat="47.89852" lon="-3.95058">
        <ele>4</ele>
        <time>2013-07-15T08:04:28Z</time>
      </trkpt>
      <trkpt lat="47.89866" lon="-3.95034">
        <ele>4</ele>
        <time>2013-07-15T08:04:44Z</time>
      </trkpt>
      <trkpt lat="47.89872" lon="-3.9502">
        <ele>3</ele>
        <time>2013-07-15T08:04:53Z</time>
      </trkpt>
      <trkpt lat="47.89885" lon="-3.94993">
        <ele>1</ele>
        <time>2013-07-15T08:05:08Z</time>
      </trkpt>
      <trkpt lat="47.89885" lon="-3.94993">
        <ele>1</ele>
        <time>2013-07-15T08:05:31Z</time>
      </trkpt>
      <trkpt lat="47.89886" lon="-3.94985">
        <ele>1</ele>
        <time>2013-07-15T08:05:46Z</time>
      </trkpt>
      <trkpt lat="47.8989" lon="-3.94984">
        <ele>1</ele>
        <time>2013-07-15T08:05:56Z</time>
      </trkpt>
      <trkpt lat="47.89895" lon="-3.94985">
        <ele>4.2</ele>
        <time>2013-07-15T08:05:59Z</time>
      </trkpt>
      <trkpt lat="47.89899" lon="-3.94985">
        <ele>4</ele>
        <time>2013-07-15T08:06:02Z</time>
      </trkpt>
      <trkpt lat="47.89913" lon="-3.94971">
        <ele>-1</ele>
        <time>2013-07-15T08:06:15Z</time>
      </trkpt>
      <trkpt lat="47.89924" lon="-3.94958">
        <ele>3.9</ele>
        <time>2013-07-15T08:06:28Z</time>
      </trkpt>
      <trkpt lat="47.89931" lon="-3.94932">
        <ele>3</ele>
        <time>2013-07-15T08:06:42Z</time>
      </trkpt>
      <trkpt lat="47.8993" lon="-3.9493">
        <ele>3</ele>
        <time>2013-07-15T08:06:43Z</time>
      </trkpt>
      <trkpt lat="47.89929" lon="-3.94923">
        <ele>4</ele>
        <time>2013-07-15T08:06:48Z</time>
      </trkpt>
      <trkpt lat="47.89933" lon="-3.94899">
        <ele>6</ele>
        <time>2013-07-15T08:07:02Z</time>
      </trkpt>
      <trkpt lat="47.89937" lon="-3.9487">
        <ele>6</ele>
        <time>2013-07-15T08:07:16Z</time>
      </trkpt>
      <trkpt lat="47.89934" lon="-3.94855">
        <ele>4</ele>
        <time>2013-07-15T08:07:25Z</time>
      </trkpt>
      <trkpt lat="47.89933" lon="-3.94842">
        <ele>3</ele>
        <time>2013-07-15T08:07:32Z</time>
      </trkpt>
      <trkpt lat="47.89943" lon="-3.9483">
        <ele>2</ele>
        <time>2013-07-15T08:07:43Z</time>
      </trkpt>
      <trkpt lat="47.89947" lon="-3.94829">
        <ele>2</ele>
        <time>2013-07-15T08:07:46Z</time>
      </trkpt>
      <trkpt lat="47.89951" lon="-3.94828">
        <ele>2</ele>
        <time>2013-07-15T08:07:49Z</time>
      </trkpt>
      <trkpt lat="47.89953" lon="-3.94826">
        <ele>2</ele>
        <time>2013-07-15T08:07:51Z</time>
      </trkpt>
      <trkpt lat="47.89973" lon="-3.94817">
        <ele>2</ele>
        <time>2013-07-15T08:08:06Z</time>
      </trkpt>
      <trkpt lat="47.89981" lon="-3.94816">
        <ele>1</ele>
        <time>2013-07-15T08:08:12Z</time>
      </trkpt>
      <trkpt lat="47.89989" lon="-3.9482">
        <ele>4</ele>
        <time>2013-07-15T08:08:23Z</time>
      </trkpt>
      <trkpt lat="47.90001" lon="-3.94822">
        <ele>2</ele>
        <time>2013-07-15T08:08:31Z</time>
      </trkpt>
      <trkpt lat="47.90009" lon="-3.94824">
        <ele>3</ele>
        <time>2013-07-15T08:08:35Z</time>
      </trkpt>
      <trkpt lat="47.90025" lon="-3.9482">
        <ele>5</ele>
        <time>2013-07-15T08:08:48Z</time>
      </trkpt>
      <trkpt lat="47.90036" lon="-3.9482">
        <ele>4</ele>
        <time>2013-07-15T08:08:58Z</time>
      </trkpt>
      <trkpt lat="47.90052" lon="-3.94817">
        <ele>4</ele>
        <time>2013-07-15T08:09:11Z</time>
      </trkpt>
      <trkpt lat="47.90065" lon="-3.94805">
        <ele>3</ele>
        <time>2013-07-15T08:09:22Z</time>
      </trkpt>
      <trkpt lat="47.90069" lon="-3.94801">
        <ele>2</ele>
        <time>2013-07-15T08:09:25Z</time>
      </trkpt>
      <trkpt lat="47.90081" lon="-3.94797">
        <ele>4</ele>
        <time>2013-07-15T08:09:38Z</time>
      </trkpt>
      <trkpt lat="47.90086" lon="-3.94796">
        <ele>4</ele>
        <time>2013-07-15T08:09:43Z</time>
      </trkpt>
      <trkpt lat="47.90092" lon="-3.94791">
        <ele>3</ele>
        <time>2013-07-15T08:09:48Z</time>
      </trkpt>
      <trkpt lat="47.90103" lon="-3.94781">
        <ele>2</ele>
        <time>2013-07-15T08:09:57Z</time>
      </trkpt>
      <trkpt lat="47.90117" lon="-3.94765">
        <ele>1</ele>
        <time>2013-07-15T08:10:08Z</time>
      </trkpt>
      <trkpt lat="47.90131" lon="-3.94749">
        <ele>1</ele>
        <time>2013-07-15T08:10:20Z</time>
      </trkpt>
      <trkpt lat="47.90138" lon="-3.94741">
        <ele>1</ele>
        <time>2013-07-15T08:10:25Z</time>
      </trkpt>
      <trkpt lat="47.90156" lon="-3.9473">
        <ele>1</ele>
        <time>2013-07-15T08:10:37Z</time>
      </trkpt>
      <trkpt lat="47.90164" lon="-3.94725">
        <ele>1</ele>
        <time>2013-07-15T08:10:42Z</time>
      </trkpt>
      <trkpt lat="47.90177" lon="-3.9472">
        <ele>1</ele>
        <time>2013-07-15T08:10:51Z</time>
      </trkpt>
      <trkpt lat="47.90184" lon="-3.9472">
        <ele>1</ele>
        <time>2013-07-15T08:10:57Z</time>
      </trkpt>
      <trkpt lat="47.902" lon="-3.94717">
        <ele>2</ele>
        <time>2013-07-15T08:11:13Z</time>
      </trkpt>
      <trkpt lat="47.90208" lon="-3.94708">
        <ele>1</ele>
        <time>2013-07-15T08:11:27Z</time>
      </trkpt>
      <trkpt lat="47.90208" lon="-3.94707">
        <ele>1</ele>
        <time>2013-07-15T08:11:28Z</time>
      </trkpt>
      <trkpt lat="47.90216" lon="-3.94699">
        <ele>4.3</ele>
        <time>2013-07-15T08:11:37Z</time>
      </trkpt>
      <trkpt lat="47.90223" lon="-3.947">
        <ele>5.3</ele>
        <time>2013-07-15T08:11:43Z</time>
      </trkpt>
      <trkpt lat="47.90231" lon="-3.94699">
        <ele>1</ele>
        <time>2013-07-15T08:11:51Z</time>
      </trkpt>
      <trkpt lat="47.90236" lon="-3.947">
        <ele>1</ele>
        <time>2013-07-15T08:11:54Z</time>
      </trkpt>
      <trkpt lat="47.90259" lon="-3.94686">
        <ele>1</ele>
        <time>2013-07-15T08:12:08Z</time>
      </trkpt>
      <trkpt lat="47.90266" lon="-3.94684">
        <ele>1</ele>
        <time>2013-07-15T08:12:15Z</time>
      </trkpt>
      <trkpt lat="47.90279" lon="-3.94683">
        <ele>2</ele>
        <time>2013-07-15T08:12:25Z</time>
      </trkpt>
      <trkpt lat="47.90294" lon="-3.94683">
        <ele>3</ele>
        <time>2013-07-15T08:12:35Z</time>
      </trkpt>
      <trkpt lat="47.90306" lon="-3.94684">
        <ele>3</ele>
        <time>2013-07-15T08:12:45Z</time>
      </trkpt>
      <trkpt lat="47.90307" lon="-3.94684">
        <ele>3</ele>
        <time>2013-07-15T08:12:46Z</time>
      </trkpt>
      <trkpt lat="47.90319" lon="-3.94691">
        <ele>3</ele>
        <time>2013-07-15T08:12:55Z</time>
      </trkpt>
      <trkpt lat="47.9032" lon="-3.94691">
        <ele>3</ele>
        <time>2013-07-15T08:12:56Z</time>
      </trkpt>
      <trkpt lat="47.90333" lon="-3.94701">
        <ele>5</ele>
        <time>2013-07-15T08:13:07Z</time>
      </trkpt>
      <trkpt lat="47.90339" lon="-3.94703">
        <ele>5</ele>
        <time>2013-07-15T08:13:12Z</time>
      </trkpt>
      <trkpt lat="47.90351" lon="-3.94705">
        <ele>2</ele>
        <time>2013-07-15T08:13:25Z</time>
      </trkpt>
      <trkpt lat="47.90363" lon="-3.94701">
        <ele>2</ele>
        <time>2013-07-15T08:13:40Z</time>
      </trkpt>
      <trkpt lat="47.90369" lon="-3.947">
        <ele>3</ele>
        <time>2013-07-15T08:13:55Z</time>
      </trkpt>
      <trkpt lat="47.90372" lon="-3.947">
        <ele>3</ele>
        <time>2013-07-15T08:14:18Z</time>
      </trkpt>
      <trkpt lat="47.90375" lon="-3.94699">
        <ele>4</ele>
        <time>2013-07-15T08:14:31Z</time>
      </trkpt>
      <trkpt lat="47.9038" lon="-3.94697">
        <ele>4</ele>
        <time>2013-07-15T08:14:46Z</time>
      </trkpt>
      <trkpt lat="47.90382" lon="-3.94704">
        <ele>5</ele>
        <time>2013-07-15T08:15:05Z</time>
      </trkpt>
      <trkpt lat="47.90386" lon="-3.94711">
        <ele>7</ele>
        <time>2013-07-15T08:15:21Z</time>
      </trkpt>
      <trkpt lat="47.90391" lon="-3.94708">
        <ele>6</ele>
        <time>2013-07-15T08:15:35Z</time>
      </trkpt>
      <trkpt lat="47.90386" lon="-3.94706">
        <ele>6</ele>
        <time>2013-07-15T08:15:46Z</time>
      </trkpt>
      <trkpt lat="47.90386" lon="-3.947">
        <ele>4</ele>
        <time>2013-07-15T08:15:53Z</time>
      </trkpt>
      <trkpt lat="47.90393" lon="-3.94695">
        <ele>4</ele>
        <time>2013-07-15T08:16:03Z</time>
      </trkpt>
      <trkpt lat="47.90405" lon="-3.94688">
        <ele>3</ele>
        <time>2013-07-15T08:16:15Z</time>
      </trkpt>
      <trkpt lat="47.90417" lon="-3.94682">
        <ele>2</ele>
        <time>2013-07-15T08:16:25Z</time>
      </trkpt>
      <trkpt lat="47.90423" lon="-3.94677">
        <ele>2</ele>
        <time>2013-07-15T08:16:34Z</time>
      </trkpt>
      <trkpt lat="47.90439" lon="-3.94657">
        <ele>6.6</ele>
        <time>2013-07-15T08:16:45Z</time>
      </trkpt>
      <trkpt lat="47.90441" lon="-3.94653">
        <ele>6.1</ele>
        <time>2013-07-15T08:16:47Z</time>
      </trkpt>
      <trkpt lat="47.90465" lon="-3.94625">
        <ele>3.5</ele>
        <time>2013-07-15T08:17:03Z</time>
      </trkpt>
      <trkpt lat="47.90472" lon="-3.94614">
        <ele>-1</ele>
        <time>2013-07-15T08:17:09Z</time>
      </trkpt>
      <trkpt lat="47.90481" lon="-3.94612">
        <ele>3</ele>
        <time>2013-07-15T08:17:22Z</time>
      </trkpt>
      <trkpt lat="47.90498" lon="-3.94612">
        <ele>-1</ele>
        <time>2013-07-15T08:17:33Z</time>
      </trkpt>
      <trkpt lat="47.9051" lon="-3.94595">
        <ele>-1</ele>
        <time>2013-07-15T08:17:44Z</time>
      </trkpt>
      <trkpt lat="47.90518" lon="-3.94572">
        <ele>-1</ele>
        <time>2013-07-15T08:17:54Z</time>
      </trkpt>
      <trkpt lat="47.90514" lon="-3.94568">
        <ele>-1</ele>
        <time>2013-07-15T08:17:59Z</time>
      </trkpt>
      <trkpt lat="47.90507" lon="-3.94555">
        <ele>1</ele>
        <time>2013-07-15T08:18:14Z</time>
      </trkpt>
      <trkpt lat="47.90496" lon="-3.9454">
        <ele>3</ele>
        <time>2013-07-15T08:18:27Z</time>
      </trkpt>
      <trkpt lat="47.90482" lon="-3.94533">
        <ele>4</ele>
        <time>2013-07-15T08:18:38Z</time>
      </trkpt>
      <trkpt lat="47.90479" lon="-3.94532">
        <ele>4</ele>
        <time>2013-07-15T08:18:41Z</time>
      </trkpt>
      <trkpt lat="47.90463" lon="-3.94526">
        <ele>4</ele>
        <time>2013-07-15T08:18:52Z</time>
      </trkpt>
      <trkpt lat="47.90452" lon="-3.94521">
        <ele>4</ele>
        <time>2013-07-15T08:19:03Z</time>
      </trkpt>
      <trkpt lat="47.90449" lon="-3.9452">
        <ele>4</ele>
        <time>2013-07-15T08:19:05Z</time>
      </trkpt>
      <trkpt lat="47.90424" lon="-3.94513">
        <ele>5</ele>
        <time>2013-07-15T08:19:20Z</time>
      </trkpt>
      <trkpt lat="47.90403" lon="-3.94512">
        <ele>5</ele>
        <time>2013-07-15T08:19:32Z</time>
      </trkpt>
      <trkpt lat="47.90396" lon="-3.94512">
        <ele>6</ele>
        <time>2013-07-15T08:19:36Z</time>
      </trkpt>
      <trkpt lat="47.90381" lon="-3.94499">
        <ele>7</ele>
        <time>2013-07-15T08:19:48Z</time>
      </trkpt>
      <trkpt lat="47.9037" lon="-3.94499">
        <ele>7</ele>
        <time>2013-07-15T08:19:54Z</time>
      </trkpt>
      <trkpt lat="47.90349" lon="-3.94502">
        <ele>5</ele>
        <time>2013-07-15T08:20:07Z</time>
      </trkpt>
      <trkpt lat="47.90339" lon="-3.94514">
        <ele>4</ele>
        <time>2013-07-15T08:20:19Z</time>
      </trkpt>
      <trkpt lat="47.90322" lon="-3.94517">
        <ele>4</ele>
        <time>2013-07-15T08:20:32Z</time>
      </trkpt>
      <trkpt lat="47.90312" lon="-3.94515">
        <ele>3</ele>
        <time>2013-07-15T08:20:42Z</time>
      </trkpt>
      <trkpt lat="47.90295" lon="-3.94524">
        <ele>3</ele>
        <time>2013-07-15T08:20:52Z</time>
      </trkpt>
      <trkpt lat="47.90283" lon="-3.94526">
        <ele>3</ele>
        <time>2013-07-15T08:21:02Z</time>
      </trkpt>
      <trkpt lat="47.90279" lon="-3.94529">
        <ele>2</ele>
        <time>2013-07-15T08:21:04Z</time>
      </trkpt>
      <trkpt lat="47.90274" lon="-3.94534">
        <ele>3</ele>
        <time>2013-07-15T08:21:07Z</time>
      </trkpt>
      <trkpt lat="47.90258" lon="-3.94547">
        <ele>2</ele>
        <time>2013-07-15T08:21:20Z</time>
      </trkpt>
      <trkpt lat="47.90246" lon="-3.94552">
        <ele>2</ele>
        <time>2013-07-15T08:21:30Z</time>
      </trkpt>
      <trkpt lat="47.90233" lon="-3.94564">
        <ele>2</ele>
        <time>2013-07-15T08:21:39Z</time>
      </trkpt>
      <trkpt lat="47.90223" lon="-3.94573">
        <ele>1</ele>
        <time>2013-07-15T08:21:44Z</time>
      </trkpt>
      <trkpt lat="47.90206" lon="-3.94581">
        <ele>1</ele>
        <time>2013-07-15T08:21:59Z</time>
      </trkpt>
      <trkpt lat="47.90197" lon="-3.94581">
        <ele>2</ele>
        <time>2013-07-15T08:22:06Z</time>
      </trkpt>
      <trkpt lat="47.90192" lon="-3.9458">
        <ele>2</ele>
        <time>2013-07-15T08:22:10Z</time>
      </trkpt>
      <trkpt lat="47.90183" lon="-3.94587">
        <ele>2</ele>
        <time>2013-07-15T08:22:18Z</time>
      </trkpt>
      <trkpt lat="47.90167" lon="-3.94598">
        <ele>1</ele>
        <time>2013-07-15T08:22:30Z</time>
      </trkpt>
      <trkpt lat="47.90153" lon="-3.94607">
        <ele>1</ele>
        <time>2013-07-15T08:22:39Z</time>
      </trkpt>
      <trkpt lat="47.90146" lon="-3.94612">
        <ele>1</ele>
        <time>2013-07-15T08:22:43Z</time>
      </trkpt>
      <trkpt lat="47.90138" lon="-3.9462">
        <ele>2</ele>
        <time>2013-07-15T08:22:53Z</time>
      </trkpt>
      <trkpt lat="47.9013" lon="-3.94622">
        <ele>5</ele>
        <time>2013-07-15T08:23:02Z</time>
      </trkpt>
      <trkpt lat="47.9012" lon="-3.94635">
        <ele>5</ele>
        <time>2013-07-15T08:23:14Z</time>
      </trkpt>
      <trkpt lat="47.9011" lon="-3.94638">
        <ele>5</ele>
        <time>2013-07-15T08:23:34Z</time>
      </trkpt>
      <trkpt lat="47.90106" lon="-3.94633">
        <ele>5</ele>
        <time>2013-07-15T08:23:56Z</time>
      </trkpt>
      <trkpt lat="47.90101" lon="-3.94657">
        <ele>5</ele>
        <time>2013-07-15T08:24:22Z</time>
      </trkpt>
      <trkpt lat="47.90106" lon="-3.94654">
        <ele>5</ele>
        <time>2013-07-15T08:24:48Z</time>
      </trkpt>
      <trkpt lat="47.90104" lon="-3.94661">
        <ele>4</ele>
        <time>2013-07-15T08:25:01Z</time>
      </trkpt>
      <trkpt lat="47.90098" lon="-3.94673">
        <ele>1</ele>
        <time>2013-07-15T08:25:12Z</time>
      </trkpt>
      <trkpt lat="47.90094" lon="-3.94673">
        <ele>1</ele>
        <time>2013-07-15T08:25:16Z</time>
      </trkpt>
      <trkpt lat="47.90089" lon="-3.94677">
        <ele>1</ele>
        <time>2013-07-15T08:25:20Z</time>
      </trkpt>
      <trkpt lat="47.9008" lon="-3.94676">
        <ele>1</ele>
        <time>2013-07-15T08:25:28Z</time>
      </trkpt>
      <trkpt lat="47.90078" lon="-3.94676">
        <ele>1</ele>
        <time>2013-07-15T08:25:30Z</time>
      </trkpt>
      <trkpt lat="47.90071" lon="-3.94676">
        <ele>1</ele>
        <time>2013-07-15T08:25:45Z</time>
      </trkpt>
      <trkpt lat="47.90065" lon="-3.94678">
        <ele>2</ele>
        <time>2013-07-15T08:26:18Z</time>
      </trkpt>
      <trkpt lat="47.90066" lon="-3.94673">
        <ele>2</ele>
        <time>2013-07-15T08:26:40Z</time>
      </trkpt>
      <trkpt lat="47.90066" lon="-3.94674">
        <ele>2</ele>
        <time>2013-07-15T08:26:45Z</time>
      </trkpt>
      <trkpt lat="47.90062" lon="-3.94676">
        <ele>2</ele>
        <time>2013-07-15T08:26:50Z</time>
      </trkpt>
      <trkpt lat="47.90047" lon="-3.94684">
        <ele>2</ele>
        <time>2013-07-15T08:27:03Z</time>
      </trkpt>
      <trkpt lat="47.90043" lon="-3.94686">
        <ele>2</ele>
        <time>2013-07-15T08:27:06Z</time>
      </trkpt>
      <trkpt lat="47.90032" lon="-3.94693">
        <ele>2</ele>
        <time>2013-07-15T08:27:12Z</time>
      </trkpt>
      <trkpt lat="47.90018" lon="-3.94702">
        <ele>2</ele>
        <time>2013-07-15T08:27:22Z</time>
      </trkpt>
      <trkpt lat="47.90016" lon="-3.94704">
        <ele>2</ele>
        <time>2013-07-15T08:27:24Z</time>
      </trkpt>
      <trkpt lat="47.90003" lon="-3.94706">
        <ele>2</ele>
        <time>2013-07-15T08:27:33Z</time>
      </trkpt>
      <trkpt lat="47.9" lon="-3.94704">
        <ele>2</ele>
        <time>2013-07-15T08:27:35Z</time>
      </trkpt>
      <trkpt lat="47.89981" lon="-3.94705">
        <ele>2</ele>
        <time>2013-07-15T08:27:49Z</time>
      </trkpt>
      <trkpt lat="47.89968" lon="-3.94697">
        <ele>3</ele>
        <time>2013-07-15T08:28:02Z</time>
      </trkpt>
      <trkpt lat="47.89962" lon="-3.94696">
        <ele>4</ele>
        <time>2013-07-15T08:28:08Z</time>
      </trkpt>
      <trkpt lat="47.89952" lon="-3.94704">
        <ele>3</ele>
        <time>2013-07-15T08:28:14Z</time>
      </trkpt>
      <trkpt lat="47.89929" lon="-3.94716">
        <ele>2</ele>
        <time>2013-07-15T08:28:26Z</time>
      </trkpt>
      <trkpt lat="47.8992" lon="-3.9472">
        <ele>2</ele>
        <time>2013-07-15T08:28:33Z</time>
      </trkpt>
      <trkpt lat="47.89918" lon="-3.94721">
        <ele>2</ele>
        <time>2013-07-15T08:28:35Z</time>
      </trkpt>
      <trkpt lat="47.89914" lon="-3.94722">
        <ele>2</ele>
        <time>2013-07-15T08:28:38Z</time>
      </trkpt>
      <trkpt lat="47.89905" lon="-3.94718">
        <ele>2</ele>
        <time>2013-07-15T08:28:48Z</time>
      </trkpt>
      <trkpt lat="47.89899" lon="-3.94718">
        <ele>2</ele>
        <time>2013-07-15T08:28:53Z</time>
      </trkpt>
      <trkpt lat="47.89895" lon="-3.94718">
        <ele>3</ele>
        <time>2013-07-15T08:28:56Z</time>
      </trkpt>
      <trkpt lat="47.89889" lon="-3.94719">
        <ele>3</ele>
        <time>2013-07-15T08:29:00Z</time>
      </trkpt>
      <trkpt lat="47.89881" lon="-3.94725">
        <ele>3</ele>
        <time>2013-07-15T08:29:06Z</time>
      </trkpt>
      <trkpt lat="47.89867" lon="-3.94729">
        <ele>1</ele>
        <time>2013-07-15T08:29:14Z</time>
      </trkpt>
      <trkpt lat="47.89865" lon="-3.9473">
        <ele>2</ele>
        <time>2013-07-15T08:29:16Z</time>
      </trkpt>
      <trkpt lat="47.89847" lon="-3.94739">
        <ele>2</ele>
        <time>2013-07-15T08:29:28Z</time>
      </trkpt>
      <trkpt lat="47.89842" lon="-3.9474">
        <ele>3</ele>
        <time>2013-07-15T08:29:39Z</time>
      </trkpt>
      <trkpt lat="47.89842" lon="-3.94738">
        <ele>6</ele>
        <time>2013-07-15T08:29:50Z</time>
      </trkpt>
      <trkpt lat="47.89836" lon="-3.94732">
        <ele>7</ele>
        <time>2013-07-15T08:29:56Z</time>
      </trkpt>
      <trkpt lat="47.89816" lon="-3.94726">
        <ele>7</ele>
        <time>2013-07-15T08:30:10Z</time>
      </trkpt>
      <trkpt lat="47.89797" lon="-3.94719">
        <ele>9</ele>
        <time>2013-07-15T08:30:25Z</time>
      </trkpt>
      <trkpt lat="47.89795" lon="-3.94718">
        <ele>9</ele>
        <time>2013-07-15T08:30:26Z</time>
      </trkpt>
      <trkpt lat="47.89774" lon="-3.94715">
        <ele>9</ele>
        <time>2013-07-15T08:30:36Z</time>
      </trkpt>
      <trkpt lat="47.89761" lon="-3.94722">
        <ele>6</ele>
        <time>2013-07-15T08:30:48Z</time>
      </trkpt>
      <trkpt lat="47.89752" lon="-3.94733">
        <ele>4</ele>
        <time>2013-07-15T08:31:00Z</time>
      </trkpt>
      <trkpt lat="47.8975" lon="-3.94733">
        <ele>4</ele>
        <time>2013-07-15T08:31:03Z</time>
      </trkpt>
      <trkpt lat="47.89725" lon="-3.94722">
        <ele>4</ele>
        <time>2013-07-15T08:31:18Z</time>
      </trkpt>
      <trkpt lat="47.89716" lon="-3.94716">
        <ele>4</ele>
        <time>2013-07-15T08:31:24Z</time>
      </trkpt>
      <trkpt lat="47.89698" lon="-3.94697">
        <ele>5</ele>
        <time>2013-07-15T08:31:40Z</time>
      </trkpt>
      <trkpt lat="47.89694" lon="-3.94693">
        <ele>5</ele>
        <time>2013-07-15T08:31:46Z</time>
      </trkpt>
      <trkpt lat="47.89674" lon="-3.9468">
        <ele>4</ele>
        <time>2013-07-15T08:31:58Z</time>
      </trkpt>
      <trkpt lat="47.89659" lon="-3.94675">
        <ele>3</ele>
        <time>2013-07-15T08:32:09Z</time>
      </trkpt>
      <trkpt lat="47.89652" lon="-3.94673">
        <ele>3</ele>
        <time>2013-07-15T08:32:16Z</time>
      </trkpt>
      <trkpt lat="47.89641" lon="-3.94677">
        <ele>3</ele>
        <time>2013-07-15T08:32:22Z</time>
      </trkpt>
      <trkpt lat="47.89636" lon="-3.94682">
        <ele>2</ele>
        <time>2013-07-15T08:32:26Z</time>
      </trkpt>
      <trkpt lat="47.89633" lon="-3.94684">
        <ele>2</ele>
        <time>2013-07-15T08:32:28Z</time>
      </trkpt>
      <trkpt lat="47.89625" lon="-3.94686">
        <ele>4</ele>
        <time>2013-07-15T08:32:36Z</time>
      </trkpt>
      <trkpt lat="47.89606" lon="-3.94688">
        <ele>5</ele>
        <time>2013-07-15T08:32:50Z</time>
      </trkpt>
      <trkpt lat="47.89599" lon="-3.9469">
        <ele>5</ele>
        <time>2013-07-15T08:32:56Z</time>
      </trkpt>
      <trkpt lat="47.8959" lon="-3.94694">
        <ele>5</ele>
        <time>2013-07-15T08:33:01Z</time>
      </trkpt>
      <trkpt lat="47.89571" lon="-3.94696">
        <ele>5</ele>
        <time>2013-07-15T08:33:14Z</time>
      </trkpt>
      <trkpt lat="47.89567" lon="-3.94694">
        <ele>4</ele>
        <time>2013-07-15T08:33:22Z</time>
      </trkpt>
      <trkpt lat="47.89553" lon="-3.94693">
        <ele>5</ele>
        <time>2013-07-15T08:33:33Z</time>
      </trkpt>
      <trkpt lat="47.89529" lon="-3.94709">
        <ele>4</ele>
        <time>2013-07-15T08:33:46Z</time>
      </trkpt>
      <trkpt lat="47.89526" lon="-3.94711">
        <ele>5</ele>
        <time>2013-07-15T08:33:49Z</time>
      </trkpt>
      <trkpt lat="47.89513" lon="-3.94723">
        <ele>4</ele>
        <time>2013-07-15T08:33:56Z</time>
      </trkpt>
      <trkpt lat="47.89507" lon="-3.94727">
        <ele>4</ele>
        <time>2013-07-15T08:34:00Z</time>
      </trkpt>
      <trkpt lat="47.89504" lon="-3.94729">
        <ele>4</ele>
        <time>2013-07-15T08:34:02Z</time>
      </trkpt>
      <trkpt lat="47.89499" lon="-3.94733">
        <ele>4</ele>
        <time>2013-07-15T08:34:06Z</time>
      </trkpt>
      <trkpt lat="47.8948" lon="-3.94749">
        <ele>5</ele>
        <time>2013-07-15T08:34:20Z</time>
      </trkpt>
      <trkpt lat="47.89462" lon="-3.9476">
        <ele>5</ele>
        <time>2013-07-15T08:34:33Z</time>
      </trkpt>
      <trkpt lat="47.89448" lon="-3.94769">
        <ele>4</ele>
        <time>2013-07-15T08:34:44Z</time>
      </trkpt>
      <trkpt lat="47.89433" lon="-3.94773">
        <ele>4</ele>
        <time>2013-07-15T08:34:57Z</time>
      </trkpt>
      <trkpt lat="47.8943" lon="-3.94774">
        <ele>4</ele>
        <time>2013-07-15T08:34:59Z</time>
      </trkpt>
      <trkpt lat="47.89423" lon="-3.94776">
        <ele>4</ele>
        <time>2013-07-15T08:35:03Z</time>
      </trkpt>
      <trkpt lat="47.89404" lon="-3.94786">
        <ele>4</ele>
        <time>2013-07-15T08:35:16Z</time>
      </trkpt>
      <trkpt lat="47.89397" lon="-3.94788">
        <ele>4</ele>
        <time>2013-07-15T08:35:21Z</time>
      </trkpt>
      <trkpt lat="47.8938" lon="-3.94801">
        <ele>4</ele>
        <time>2013-07-15T08:35:34Z</time>
      </trkpt>
      <trkpt lat="47.89371" lon="-3.94815">
        <ele>5</ele>
        <time>2013-07-15T08:35:42Z</time>
      </trkpt>
      <trkpt lat="47.89362" lon="-3.94837">
        <ele>5</ele>
        <time>2013-07-15T08:35:54Z</time>
      </trkpt>
      <trkpt lat="47.89348" lon="-3.94875">
        <ele>6</ele>
        <time>2013-07-15T08:36:11Z</time>
      </trkpt>
      <trkpt lat="47.89345" lon="-3.94883">
        <ele>6</ele>
        <time>2013-07-15T08:36:16Z</time>
      </trkpt>
      <trkpt lat="47.89332" lon="-3.94902">
        <ele>8</ele>
        <time>2013-07-15T08:36:30Z</time>
      </trkpt>
      <trkpt lat="47.89323" lon="-3.94912">
        <ele>9</ele>
        <time>2013-07-15T08:36:35Z</time>
      </trkpt>
      <trkpt lat="47.8932" lon="-3.94916">
        <ele>9</ele>
        <time>2013-07-15T08:36:37Z</time>
      </trkpt>
      <trkpt lat="47.89315" lon="-3.94919">
        <ele>9</ele>
        <time>2013-07-15T08:36:40Z</time>
      </trkpt>
      <trkpt lat="47.893" lon="-3.94932">
        <ele>9</ele>
        <time>2013-07-15T08:36:50Z</time>
      </trkpt>
      <trkpt lat="47.89297" lon="-3.94931">
        <ele>9</ele>
        <time>2013-07-15T08:36:53Z</time>
      </trkpt>
      <trkpt lat="47.89293" lon="-3.94934">
        <ele>9</ele>
        <time>2013-07-15T08:36:57Z</time>
      </trkpt>
      <trkpt lat="47.89285" lon="-3.94933">
        <ele>10</ele>
        <time>2013-07-15T08:37:04Z</time>
      </trkpt>
      <trkpt lat="47.8928" lon="-3.94936">
        <ele>10</ele>
        <time>2013-07-15T08:37:08Z</time>
      </trkpt>
      <trkpt lat="47.89272" lon="-3.94939">
        <ele>10</ele>
        <time>2013-07-15T08:37:15Z</time>
      </trkpt>
      <trkpt lat="47.89263" lon="-3.94938">
        <ele>10</ele>
        <time>2013-07-15T08:37:22Z</time>
      </trkpt>
      <trkpt lat="47.89249" lon="-3.94931">
        <ele>10</ele>
        <time>2013-07-15T08:37:33Z</time>
      </trkpt>
      <trkpt lat="47.89238" lon="-3.94925">
        <ele>10</ele>
        <time>2013-07-15T08:37:39Z</time>
      </trkpt>
      <trkpt lat="47.89235" lon="-3.94924">
        <ele>10</ele>
        <time>2013-07-15T08:37:41Z</time>
      </trkpt>
      <trkpt lat="47.89223" lon="-3.94915">
        <ele>10</ele>
        <time>2013-07-15T08:37:46Z</time>
      </trkpt>
      <trkpt lat="47.89203" lon="-3.94906">
        <ele>9</ele>
        <time>2013-07-15T08:38:00Z</time>
      </trkpt>
      <trkpt lat="47.89194" lon="-3.94894">
        <ele>8</ele>
        <time>2013-07-15T08:38:11Z</time>
      </trkpt>
      <trkpt lat="47.89168" lon="-3.94879">
        <ele>8</ele>
        <time>2013-07-15T08:38:25Z</time>
      </trkpt>
      <trkpt lat="47.89147" lon="-3.94871">
        <ele>9</ele>
        <time>2013-07-15T08:38:38Z</time>
      </trkpt>
      <trkpt lat="47.89146" lon="-3.94864">
        <ele>9</ele>
        <time>2013-07-15T08:38:58Z</time>
      </trkpt>
      <trkpt lat="47.89152" lon="-3.94852">
        <ele>9</ele>
        <time>2013-07-15T08:39:10Z</time>
      </trkpt>
      <trkpt lat="47.89158" lon="-3.94841">
        <ele>10</ele>
        <time>2013-07-15T08:39:16Z</time>
      </trkpt>
      <trkpt lat="47.89165" lon="-3.94832">
        <ele>11</ele>
        <time>2013-07-15T08:39:32Z</time>
      </trkpt>
      <trkpt lat="47.89167" lon="-3.94827">
        <ele>10</ele>
        <time>2013-07-15T08:39:54Z</time>
      </trkpt>
      <trkpt lat="47.89172" lon="-3.94823">
        <ele>11</ele>
        <time>2013-07-15T08:40:24Z</time>
      </trkpt>
      <trkpt lat="47.89182" lon="-3.94811">
        <ele>13</ele>
        <time>2013-07-15T08:40:37Z</time>
      </trkpt>
      <trkpt lat="47.89192" lon="-3.94795">
        <ele>15</ele>
        <time>2013-07-15T08:40:48Z</time>
      </trkpt>
      <trkpt lat="47.89202" lon="-3.94779">
        <ele>16</ele>
        <time>2013-07-15T08:41:00Z</time>
      </trkpt>
      <trkpt lat="47.89222" lon="-3.94758">
        <ele>18</ele>
        <time>2013-07-15T08:41:14Z</time>
      </trkpt>
      <trkpt lat="47.89241" lon="-3.94734">
        <ele>18</ele>
        <time>2013-07-15T08:41:28Z</time>
      </trkpt>
      <trkpt lat="47.89254" lon="-3.94723">
        <ele>19</ele>
        <time>2013-07-15T08:41:38Z</time>
      </trkpt>
      <trkpt lat="47.89273" lon="-3.94711">
        <ele>18</ele>
        <time>2013-07-15T08:41:51Z</time>
      </trkpt>
      <trkpt lat="47.8929" lon="-3.94697">
        <ele>18</ele>
        <time>2013-07-15T08:42:05Z</time>
      </trkpt>
      <trkpt lat="47.89302" lon="-3.94688">
        <ele>17</ele>
        <time>2013-07-15T08:42:22Z</time>
      </trkpt>
      <trkpt lat="47.89314" lon="-3.94669">
        <ele>18</ele>
        <time>2013-07-15T08:42:45Z</time>
      </trkpt>
      <trkpt lat="47.89324" lon="-3.94661">
        <ele>17</ele>
        <time>2013-07-15T08:43:02Z</time>
      </trkpt>
      <trkpt lat="47.89333" lon="-3.9465">
        <ele>17</ele>
        <time>2013-07-15T08:43:15Z</time>
      </trkpt>
      <trkpt lat="47.89343" lon="-3.94637">
        <ele>17</ele>
        <time>2013-07-15T08:43:29Z</time>
      </trkpt>
      <trkpt lat="47.8935" lon="-3.94623">
        <ele>17</ele>
        <time>2013-07-15T08:43:40Z</time>
      </trkpt>
      <trkpt lat="47.89355" lon="-3.94621">
        <ele>17</ele>
        <time>2013-07-15T08:43:43Z</time>
      </trkpt>
      <trkpt lat="47.89384" lon="-3.94602">
        <ele>16</ele>
        <time>2013-07-15T08:43:55Z</time>
      </trkpt>
      <trkpt lat="47.89403" lon="-3.94587">
        <ele>16</ele>
        <time>2013-07-15T08:44:08Z</time>
      </trkpt>
      <trkpt lat="47.89425" lon="-3.94567">
        <ele>16</ele>
        <time>2013-07-15T08:44:23Z</time>
      </trkpt>
      <trkpt lat="47.89444" lon="-3.94553">
        <ele>16</ele>
        <time>2013-07-15T08:44:36Z</time>
      </trkpt>
      <trkpt lat="47.89451" lon="-3.94548">
        <ele>16</ele>
        <time>2013-07-15T08:44:40Z</time>
      </trkpt>
      <trkpt lat="47.89457" lon="-3.94544">
        <ele>16</ele>
        <time>2013-07-15T08:44:43Z</time>
      </trkpt>
      <trkpt lat="47.89469" lon="-3.94522">
        <ele>16</ele>
        <time>2013-07-15T08:44:56Z</time>
      </trkpt>
      <trkpt lat="47.8947" lon="-3.94508">
        <ele>16</ele>
        <time>2013-07-15T08:45:06Z</time>
      </trkpt>
      <trkpt lat="47.89476" lon="-3.94489">
        <ele>15</ele>
        <time>2013-07-15T08:45:18Z</time>
      </trkpt>
      <trkpt lat="47.89488" lon="-3.94462">
        <ele>14</ele>
        <time>2013-07-15T08:45:32Z</time>
      </trkpt>
      <trkpt lat="47.89497" lon="-3.94446">
        <ele>14</ele>
        <time>2013-07-15T08:45:39Z</time>
      </trkpt>
      <trkpt lat="47.89511" lon="-3.94409">
        <ele>13</ele>
        <time>2013-07-15T08:45:53Z</time>
      </trkpt>
      <trkpt lat="47.89508" lon="-3.94376">
        <ele>13</ele>
        <time>2013-07-15T08:46:07Z</time>
      </trkpt>
      <trkpt lat="47.89505" lon="-3.94367">
        <ele>13</ele>
        <time>2013-07-15T08:46:11Z</time>
      </trkpt>
      <trkpt lat="47.8949" lon="-3.94342">
        <ele>14</ele>
        <time>2013-07-15T08:46:23Z</time>
      </trkpt>
      <trkpt lat="47.8949" lon="-3.94313">
        <ele>15</ele>
        <time>2013-07-15T08:46:37Z</time>
      </trkpt>
      <trkpt lat="47.89491" lon="-3.94308">
        <ele>16</ele>
        <time>2013-07-15T08:46:40Z</time>
      </trkpt>
      <trkpt lat="47.89488" lon="-3.94278">
        <ele>16</ele>
        <time>2013-07-15T08:46:54Z</time>
      </trkpt>
      <trkpt lat="47.89487" lon="-3.9426">
        <ele>16</ele>
        <time>2013-07-15T08:47:03Z</time>
      </trkpt>
      <trkpt lat="47.89491" lon="-3.94242">
        <ele>16</ele>
        <time>2013-07-15T08:47:11Z</time>
      </trkpt>
      <trkpt lat="47.8949" lon="-3.94229">
        <ele>16</ele>
        <time>2013-07-15T08:47:17Z</time>
      </trkpt>
      <trkpt lat="47.8949" lon="-3.94202">
        <ele>14</ele>
        <time>2013-07-15T08:47:28Z</time>
      </trkpt>
      <trkpt lat="47.89494" lon="-3.94188">
        <ele>12</ele>
        <time>2013-07-15T08:47:36Z</time>
      </trkpt>
      <trkpt lat="47.89494" lon="-3.94174">
        <ele>10</ele>
        <time>2013-07-15T08:47:41Z</time>
      </trkpt>
      <trkpt lat="47.89489" lon="-3.94163">
        <ele>9</ele>
        <time>2013-07-15T08:47:46Z</time>
      </trkpt>
      <trkpt lat="47.89473" lon="-3.94141">
        <ele>9</ele>
        <time>2013-07-15T08:47:59Z</time>
      </trkpt>
      <trkpt lat="47.89456" lon="-3.94119">
        <ele>9</ele>
        <time>2013-07-15T08:48:13Z</time>
      </trkpt>
      <trkpt lat="47.89448" lon="-3.94108">
        <ele>8</ele>
        <time>2013-07-15T08:48:22Z</time>
      </trkpt>
      <trkpt lat="47.89446" lon="-3.94106">
        <ele>8</ele>
        <time>2013-07-15T08:48:24Z</time>
      </trkpt>
      <trkpt lat="47.89445" lon="-3.94104">
        <ele>8</ele>
        <time>2013-07-15T08:48:25Z</time>
      </trkpt>
      <trkpt lat="47.89443" lon="-3.94103">
        <ele>8</ele>
        <time>2013-07-15T08:48:26Z</time>
      </trkpt>
      <trkpt lat="47.89441" lon="-3.94101">
        <ele>8</ele>
        <time>2013-07-15T08:48:27Z</time>
      </trkpt>
      <trkpt lat="47.8944" lon="-3.94099">
        <ele>8</ele>
        <time>2013-07-15T08:48:28Z</time>
      </trkpt>
      <trkpt lat="47.89439" lon="-3.94098">
        <ele>8</ele>
        <time>2013-07-15T08:48:29Z</time>
      </trkpt>
      <trkpt lat="47.89437" lon="-3.94096">
        <ele>8</ele>
        <time>2013-07-15T08:48:30Z</time>
      </trkpt>
      <trkpt lat="47.89436" lon="-3.94095">
        <ele>8</ele>
        <time>2013-07-15T08:48:31Z</time>
      </trkpt>
      <trkpt lat="47.89434" lon="-3.94093">
        <ele>8</ele>
        <time>2013-07-15T08:48:32Z</time>
      </trkpt>
      <trkpt lat="47.89432" lon="-3.94091">
        <ele>9</ele>
        <time>2013-07-15T08:48:33Z</time>
      </trkpt>
      <trkpt lat="47.89423" lon="-3.94086">
        <ele>8</ele>
        <time>2013-07-15T08:48:44Z</time>
      </trkpt>
      <trkpt lat="47.8942" lon="-3.94086">
        <ele>5</ele>
        <time>2013-07-15T08:48:49Z</time>
      </trkpt>
      <trkpt lat="47.89418" lon="-3.94086">
        <ele>5</ele>
        <time>2013-07-15T08:48:50Z</time>
      </trkpt>
      <trkpt lat="47.89417" lon="-3.94088">
        <ele>5</ele>
        <time>2013-07-15T08:48:51Z</time>
      </trkpt>
      <trkpt lat="47.89416" lon="-3.94089">
        <ele>5</ele>
        <time>2013-07-15T08:48:52Z</time>
      </trkpt>
      <trkpt lat="47.89412" lon="-3.94095">
        <ele>4</ele>
        <time>2013-07-15T08:48:58Z</time>
      </trkpt>
      <trkpt lat="47.89411" lon="-3.94097">
        <ele>4</ele>
        <time>2013-07-15T08:48:59Z</time>
      </trkpt>
      <trkpt lat="47.8941" lon="-3.941">
        <ele>4</ele>
        <time>2013-07-15T08:49:00Z</time>
      </trkpt>
      <trkpt lat="47.8941" lon="-3.94109">
        <ele>4</ele>
        <time>2013-07-15T08:49:07Z</time>
      </trkpt>
      <trkpt lat="47.8941" lon="-3.94111">
        <ele>4</ele>
        <time>2013-07-15T08:49:08Z</time>
      </trkpt>
      <trkpt lat="47.89406" lon="-3.94141">
        <ele>3</ele>
        <time>2013-07-15T08:49:21Z</time>
      </trkpt>
      <trkpt lat="47.89406" lon="-3.94145">
        <ele>3</ele>
        <time>2013-07-15T08:49:23Z</time>
      </trkpt>
      <trkpt lat="47.89405" lon="-3.94167">
        <ele>3</ele>
        <time>2013-07-15T08:49:31Z</time>
      </trkpt>
      <trkpt lat="47.89404" lon="-3.94171">
        <ele>3</ele>
        <time>2013-07-15T08:49:33Z</time>
      </trkpt>
      <trkpt lat="47.89404" lon="-3.94204">
        <ele>3</ele>
        <time>2013-07-15T08:49:45Z</time>
      </trkpt>
      <trkpt lat="47.89404" lon="-3.94208">
        <ele>3</ele>
        <time>2013-07-15T08:49:47Z</time>
      </trkpt>
      <trkpt lat="47.89403" lon="-3.94233">
        <ele>3</ele>
        <time>2013-07-15T08:49:57Z</time>
      </trkpt>
      <trkpt lat="47.89401" lon="-3.94239">
        <ele>3</ele>
        <time>2013-07-15T08:50:02Z</time>
      </trkpt>
      <trkpt lat="47.89399" lon="-3.94247">
        <ele>2</ele>
        <time>2013-07-15T08:50:07Z</time>
      </trkpt>
      <trkpt lat="47.89388" lon="-3.94262">
        <ele>3</ele>
        <time>2013-07-15T08:50:19Z</time>
      </trkpt>
      <trkpt lat="47.89383" lon="-3.94266">
        <ele>3</ele>
        <time>2013-07-15T08:50:23Z</time>
      </trkpt>
      <trkpt lat="47.89365" lon="-3.94276">
        <ele>3</ele>
        <time>2013-07-15T08:50:37Z</time>
      </trkpt>
      <trkpt lat="47.89356" lon="-3.9428">
        <ele>3</ele>
        <time>2013-07-15T08:50:42Z</time>
      </trkpt>
      <trkpt lat="47.8935" lon="-3.94284">
        <ele>3</ele>
        <time>2013-07-15T08:50:46Z</time>
      </trkpt>
      <trkpt lat="47.89343" lon="-3.94285">
        <ele>3</ele>
        <time>2013-07-15T08:50:51Z</time>
      </trkpt>
      <trkpt lat="47.89337" lon="-3.94287">
        <ele>3</ele>
        <time>2013-07-15T08:50:55Z</time>
      </trkpt>
      <trkpt lat="47.89326" lon="-3.9429">
        <ele>4</ele>
        <time>2013-07-15T08:51:08Z</time>
      </trkpt>
      <trkpt lat="47.89308" lon="-3.94304">
        <ele>4</ele>
        <time>2013-07-15T08:51:18Z</time>
      </trkpt>
      <trkpt lat="47.89308" lon="-3.94304">
        <ele>4</ele>
        <time>2013-07-15T08:51:19Z</time>
      </trkpt>
      <trkpt lat="47.89303" lon="-3.94313">
        <ele>3</ele>
        <time>2013-07-15T08:51:22Z</time>
      </trkpt>
      <trkpt lat="47.89296" lon="-3.94332">
        <ele>3</ele>
        <time>2013-07-15T08:51:33Z</time>
      </trkpt>
      <trkpt lat="47.89291" lon="-3.94353">
        <ele>3</ele>
        <time>2013-07-15T08:51:45Z</time>
      </trkpt>
      <trkpt lat="47.89284" lon="-3.94373">
        <ele>4</ele>
        <time>2013-07-15T08:51:57Z</time>
      </trkpt>
      <trkpt lat="47.8928" lon="-3.94385">
        <ele>4</ele>
        <time>2013-07-15T08:52:04Z</time>
      </trkpt>
      <trkpt lat="47.89273" lon="-3.94395">
        <ele>4</ele>
        <time>2013-07-15T08:52:13Z</time>
      </trkpt>
      <trkpt lat="47.89262" lon="-3.94406">
        <ele>5</ele>
        <time>2013-07-15T08:52:21Z</time>
      </trkpt>
      <trkpt lat="47.89261" lon="-3.94408">
        <ele>4</ele>
        <time>2013-07-15T08:52:22Z</time>
      </trkpt>
      <trkpt lat="47.89246" lon="-3.94428">
        <ele>2</ele>
        <time>2013-07-15T08:52:35Z</time>
      </trkpt>
      <trkpt lat="47.89245" lon="-3.94429">
        <ele>3</ele>
        <time>2013-07-15T08:52:37Z</time>
      </trkpt>
      <trkpt lat="47.89233" lon="-3.94439">
        <ele>3</ele>
        <time>2013-07-15T08:52:48Z</time>
      </trkpt>
      <trkpt lat="47.89231" lon="-3.9444">
        <ele>3</ele>
        <time>2013-07-15T08:52:49Z</time>
      </trkpt>
      <trkpt lat="47.89226" lon="-3.94444">
        <ele>3</ele>
        <time>2013-07-15T08:52:53Z</time>
      </trkpt>
      <trkpt lat="47.89218" lon="-3.9445">
        <ele>4</ele>
        <time>2013-07-15T08:52:59Z</time>
      </trkpt>
      <trkpt lat="47.89217" lon="-3.94452">
        <ele>4</ele>
        <time>2013-07-15T08:53:00Z</time>
      </trkpt>
      <trkpt lat="47.89216" lon="-3.94453">
        <ele>3</ele>
        <time>2013-07-15T08:53:01Z</time>
      </trkpt>
      <trkpt lat="47.89214" lon="-3.94455">
        <ele>3</ele>
        <time>2013-07-15T08:53:02Z</time>
      </trkpt>
      <trkpt lat="47.89214" lon="-3.94456">
        <ele>3</ele>
        <time>2013-07-15T08:53:03Z</time>
      </trkpt>
      <trkpt lat="47.89208" lon="-3.94461">
        <ele>3</ele>
        <time>2013-07-15T08:53:05Z</time>
      </trkpt>
      <trkpt lat="47.89206" lon="-3.94462">
        <ele>3</ele>
        <time>2013-07-15T08:53:06Z</time>
      </trkpt>
      <trkpt lat="47.89202" lon="-3.94464">
        <ele>3</ele>
        <time>2013-07-15T08:53:08Z</time>
      </trkpt>
      <trkpt lat="47.892" lon="-3.94465">
        <ele>3</ele>
        <time>2013-07-15T08:53:09Z</time>
      </trkpt>
      <trkpt lat="47.89199" lon="-3.94466">
        <ele>3</ele>
        <time>2013-07-15T08:53:10Z</time>
      </trkpt>
      <trkpt lat="47.89197" lon="-3.94466">
        <ele>3</ele>
        <time>2013-07-15T08:53:11Z</time>
      </trkpt>
      <trkpt lat="47.89191" lon="-3.94465">
        <ele>4</ele>
        <time>2013-07-15T08:53:18Z</time>
      </trkpt>
      <trkpt lat="47.89185" lon="-3.94467">
        <ele>4</ele>
        <time>2013-07-15T08:53:22Z</time>
      </trkpt>
      <trkpt lat="47.89184" lon="-3.94468">
        <ele>4</ele>
        <time>2013-07-15T08:53:23Z</time>
      </trkpt>
      <trkpt lat="47.89182" lon="-3.9447">
        <ele>4</ele>
        <time>2013-07-15T08:53:24Z</time>
      </trkpt>
      <trkpt lat="47.89179" lon="-3.94472">
        <ele>3</ele>
        <time>2013-07-15T08:53:26Z</time>
      </trkpt>
      <trkpt lat="47.89175" lon="-3.94477">
        <ele>2</ele>
        <time>2013-07-15T08:53:29Z</time>
      </trkpt>
      <trkpt lat="47.89171" lon="-3.94485">
        <ele>2</ele>
        <time>2013-07-15T08:53:34Z</time>
      </trkpt>
      <trkpt lat="47.89165" lon="-3.94488">
        <ele>2</ele>
        <time>2013-07-15T08:53:39Z</time>
      </trkpt>
      <trkpt lat="47.89156" lon="-3.94489">
        <ele>3</ele>
        <time>2013-07-15T08:53:48Z</time>
      </trkpt>
      <trkpt lat="47.89144" lon="-3.94491">
        <ele>3</ele>
        <time>2013-07-15T08:53:59Z</time>
      </trkpt>
      <trkpt lat="47.89142" lon="-3.94491">
        <ele>3</ele>
        <time>2013-07-15T08:54:00Z</time>
      </trkpt>
      <trkpt lat="47.89128" lon="-3.94495">
        <ele>3</ele>
        <time>2013-07-15T08:54:10Z</time>
      </trkpt>
      <trkpt lat="47.89126" lon="-3.94497">
        <ele>3</ele>
        <time>2013-07-15T08:54:11Z</time>
      </trkpt>
      <trkpt lat="47.89119" lon="-3.94504">
        <ele>3</ele>
        <time>2013-07-15T08:54:17Z</time>
      </trkpt>
      <trkpt lat="47.89113" lon="-3.94508">
        <ele>3</ele>
        <time>2013-07-15T08:54:22Z</time>
      </trkpt>
      <trkpt lat="47.89111" lon="-3.9451">
        <ele>3</ele>
        <time>2013-07-15T08:54:23Z</time>
      </trkpt>
      <trkpt lat="47.8911" lon="-3.94512">
        <ele>3</ele>
        <time>2013-07-15T08:54:24Z</time>
      </trkpt>
      <trkpt lat="47.89101" lon="-3.94526">
        <ele>3</ele>
        <time>2013-07-15T08:54:32Z</time>
      </trkpt>
      <trkpt lat="47.891" lon="-3.94528">
        <ele>3</ele>
        <time>2013-07-15T08:54:33Z</time>
      </trkpt>
      <trkpt lat="47.89098" lon="-3.9453">
        <ele>3</ele>
        <time>2013-07-15T08:54:34Z</time>
      </trkpt>
      <trkpt lat="47.89093" lon="-3.94537">
        <ele>3</ele>
        <time>2013-07-15T08:54:39Z</time>
      </trkpt>
      <trkpt lat="47.89092" lon="-3.94537">
        <ele>3</ele>
        <time>2013-07-15T08:54:40Z</time>
      </trkpt>
      <trkpt lat="47.8909" lon="-3.94538">
        <ele>4</ele>
        <time>2013-07-15T08:54:41Z</time>
      </trkpt>
      <trkpt lat="47.89086" lon="-3.9454">
        <ele>4</ele>
        <time>2013-07-15T08:54:45Z</time>
      </trkpt>
      <trkpt lat="47.89083" lon="-3.94545">
        <ele>4</ele>
        <time>2013-07-15T08:54:48Z</time>
      </trkpt>
      <trkpt lat="47.8908" lon="-3.94549">
        <ele>4</ele>
        <time>2013-07-15T08:54:50Z</time>
      </trkpt>
      <trkpt lat="47.89079" lon="-3.9455">
        <ele>4</ele>
        <time>2013-07-15T08:54:51Z</time>
      </trkpt>
      <trkpt lat="47.89078" lon="-3.94552">
        <ele>4</ele>
        <time>2013-07-15T08:54:52Z</time>
      </trkpt>
      <trkpt lat="47.89077" lon="-3.94553">
        <ele>4</ele>
        <time>2013-07-15T08:54:53Z</time>
      </trkpt>
      <trkpt lat="47.89075" lon="-3.94555">
        <ele>4</ele>
        <time>2013-07-15T08:54:54Z</time>
      </trkpt>
      <trkpt lat="47.89071" lon="-3.94562">
        <ele>4</ele>
        <time>2013-07-15T08:54:59Z</time>
      </trkpt>
      <trkpt lat="47.89069" lon="-3.94564">
        <ele>4</ele>
        <time>2013-07-15T08:55:00Z</time>
      </trkpt>
      <trkpt lat="47.89068" lon="-3.94566">
        <ele>4</ele>
        <time>2013-07-15T08:55:01Z</time>
      </trkpt>
      <trkpt lat="47.89057" lon="-3.94573">
        <ele>6</ele>
        <time>2013-07-15T08:55:11Z</time>
      </trkpt>
      <trkpt lat="47.89056" lon="-3.94575">
        <ele>7</ele>
        <time>2013-07-15T08:55:12Z</time>
      </trkpt>
      <trkpt lat="47.89055" lon="-3.94576">
        <ele>7</ele>
        <time>2013-07-15T08:55:13Z</time>
      </trkpt>
      <trkpt lat="47.89049" lon="-3.94581">
        <ele>7</ele>
        <time>2013-07-15T08:55:18Z</time>
      </trkpt>
      <trkpt lat="47.89049" lon="-3.94582">
        <ele>7</ele>
        <time>2013-07-15T08:55:19Z</time>
      </trkpt>
      <trkpt lat="47.89049" lon="-3.94584">
        <ele>7</ele>
        <time>2013-07-15T08:55:20Z</time>
      </trkpt>
      <trkpt lat="47.89048" lon="-3.94589">
        <ele>5</ele>
        <time>2013-07-15T08:55:23Z</time>
      </trkpt>
      <trkpt lat="47.89042" lon="-3.94603">
        <ele>4</ele>
        <time>2013-07-15T08:55:33Z</time>
      </trkpt>
      <trkpt lat="47.89039" lon="-3.94606">
        <ele>4</ele>
        <time>2013-07-15T08:55:35Z</time>
      </trkpt>
      <trkpt lat="47.89038" lon="-3.94607">
        <ele>4</ele>
        <time>2013-07-15T08:55:36Z</time>
      </trkpt>
      <trkpt lat="47.8902" lon="-3.94617">
        <ele>5</ele>
        <time>2013-07-15T08:55:48Z</time>
      </trkpt>
      <trkpt lat="47.89019" lon="-3.9463">
        <ele>5</ele>
        <time>2013-07-15T08:55:57Z</time>
      </trkpt>
      <trkpt lat="47.89019" lon="-3.94632">
        <ele>4</ele>
        <time>2013-07-15T08:55:58Z</time>
      </trkpt>
      <trkpt lat="47.89015" lon="-3.94659">
        <ele>5</ele>
        <time>2013-07-15T08:56:11Z</time>
      </trkpt>
      <trkpt lat="47.89004" lon="-3.94665">
        <ele>7</ele>
        <time>2013-07-15T08:56:22Z</time>
      </trkpt>
      <trkpt lat="47.89003" lon="-3.94665">
        <ele>7</ele>
        <time>2013-07-15T08:56:24Z</time>
      </trkpt>
      <trkpt lat="47.88999" lon="-3.94667">
        <ele>7</ele>
        <time>2013-07-15T08:56:28Z</time>
      </trkpt>
      <trkpt lat="47.8899" lon="-3.94671">
        <ele>6</ele>
        <time>2013-07-15T08:56:35Z</time>
      </trkpt>
      <trkpt lat="47.88989" lon="-3.94671">
        <ele>6</ele>
        <time>2013-07-15T08:56:36Z</time>
      </trkpt>
      <trkpt lat="47.88987" lon="-3.94671">
        <ele>6</ele>
        <time>2013-07-15T08:56:37Z</time>
      </trkpt>
      <trkpt lat="47.8897" lon="-3.94677">
        <ele>6</ele>
        <time>2013-07-15T08:56:49Z</time>
      </trkpt>
      <trkpt lat="47.88957" lon="-3.94681">
        <ele>7</ele>
        <time>2013-07-15T08:56:58Z</time>
      </trkpt>
      <trkpt lat="47.88956" lon="-3.94682">
        <ele>7</ele>
        <time>2013-07-15T08:56:59Z</time>
      </trkpt>
      <trkpt lat="47.88939" lon="-3.94689">
        <ele>7</ele>
        <time>2013-07-15T08:57:12Z</time>
      </trkpt>
      <trkpt lat="47.88923" lon="-3.94697">
        <ele>8</ele>
        <time>2013-07-15T08:57:24Z</time>
      </trkpt>
      <trkpt lat="47.88916" lon="-3.947">
        <ele>8</ele>
        <time>2013-07-15T08:57:28Z</time>
      </trkpt>
      <trkpt lat="47.88899" lon="-3.94702">
        <ele>9</ele>
        <time>2013-07-15T08:57:40Z</time>
      </trkpt>
      <trkpt lat="47.88897" lon="-3.94702">
        <ele>9</ele>
        <time>2013-07-15T08:57:41Z</time>
      </trkpt>
      <trkpt lat="47.88883" lon="-3.94705">
        <ele>9</ele>
        <time>2013-07-15T08:57:54Z</time>
      </trkpt>
      <trkpt lat="47.88879" lon="-3.94704">
        <ele>9</ele>
        <time>2013-07-15T08:57:57Z</time>
      </trkpt>
      <trkpt lat="47.88867" lon="-3.94708">
        <ele>9</ele>
        <time>2013-07-15T08:58:04Z</time>
      </trkpt>
      <trkpt lat="47.88865" lon="-3.94708">
        <ele>9</ele>
        <time>2013-07-15T08:58:05Z</time>
      </trkpt>
      <trkpt lat="47.88863" lon="-3.94709">
        <ele>9</ele>
        <time>2013-07-15T08:58:06Z</time>
      </trkpt>
      <trkpt lat="47.88862" lon="-3.9471">
        <ele>9</ele>
        <time>2013-07-15T08:58:07Z</time>
      </trkpt>
      <trkpt lat="47.8886" lon="-3.9471">
        <ele>9</ele>
        <time>2013-07-15T08:58:08Z</time>
      </trkpt>
      <trkpt lat="47.88858" lon="-3.94711">
        <ele>10</ele>
        <time>2013-07-15T08:58:09Z</time>
      </trkpt>
      <trkpt lat="47.88857" lon="-3.94712">
        <ele>10</ele>
        <time>2013-07-15T08:58:10Z</time>
      </trkpt>
      <trkpt lat="47.88855" lon="-3.94713">
        <ele>9</ele>
        <time>2013-07-15T08:58:11Z</time>
      </trkpt>
      <trkpt lat="47.88854" lon="-3.94715">
        <ele>9</ele>
        <time>2013-07-15T08:58:12Z</time>
      </trkpt>
      <trkpt lat="47.88839" lon="-3.94735">
        <ele>8</ele>
        <time>2013-07-15T08:58:26Z</time>
      </trkpt>
      <trkpt lat="47.88828" lon="-3.94744">
        <ele>8</ele>
        <time>2013-07-15T08:58:33Z</time>
      </trkpt>
      <trkpt lat="47.88814" lon="-3.94753">
        <ele>6</ele>
        <time>2013-07-15T08:58:44Z</time>
      </trkpt>
      <trkpt lat="47.88792" lon="-3.94748">
        <ele>7</ele>
        <time>2013-07-15T08:58:58Z</time>
      </trkpt>
      <trkpt lat="47.88774" lon="-3.94744">
        <ele>7</ele>
        <time>2013-07-15T08:59:12Z</time>
      </trkpt>
      <trkpt lat="47.88768" lon="-3.94737">
        <ele>7</ele>
        <time>2013-07-15T08:59:19Z</time>
      </trkpt>
      <trkpt lat="47.88758" lon="-3.9472">
        <ele>7</ele>
        <time>2013-07-15T08:59:30Z</time>
      </trkpt>
      <trkpt lat="47.88758" lon="-3.94718">
        <ele>7</ele>
        <time>2013-07-15T08:59:31Z</time>
      </trkpt>
      <trkpt lat="47.88757" lon="-3.94717">
        <ele>7</ele>
        <time>2013-07-15T08:59:32Z</time>
      </trkpt>
      <trkpt lat="47.88756" lon="-3.94715">
        <ele>7</ele>
        <time>2013-07-15T08:59:33Z</time>
      </trkpt>
      <trkpt lat="47.88756" lon="-3.94713">
        <ele>7</ele>
        <time>2013-07-15T08:59:34Z</time>
      </trkpt>
      <trkpt lat="47.88748" lon="-3.94697">
        <ele>7</ele>
        <time>2013-07-15T08:59:45Z</time>
      </trkpt>
      <trkpt lat="47.88746" lon="-3.94697">
        <ele>7</ele>
        <time>2013-07-15T08:59:46Z</time>
      </trkpt>
      <trkpt lat="47.88744" lon="-3.94697">
        <ele>6</ele>
        <time>2013-07-15T08:59:47Z</time>
      </trkpt>
      <trkpt lat="47.88742" lon="-3.94697">
        <ele>6</ele>
        <time>2013-07-15T08:59:48Z</time>
      </trkpt>
      <trkpt lat="47.88731" lon="-3.94694">
        <ele>5</ele>
        <time>2013-07-15T08:59:56Z</time>
      </trkpt>
      <trkpt lat="47.88727" lon="-3.94691">
        <ele>4</ele>
        <time>2013-07-15T09:00:01Z</time>
      </trkpt>
      <trkpt lat="47.88725" lon="-3.94691">
        <ele>4</ele>
        <time>2013-07-15T09:00:03Z</time>
      </trkpt>
      <trkpt lat="47.88722" lon="-3.9469">
        <ele>4</ele>
        <time>2013-07-15T09:00:05Z</time>
      </trkpt>
      <trkpt lat="47.88721" lon="-3.94689">
        <ele>4</ele>
        <time>2013-07-15T09:00:06Z</time>
      </trkpt>
      <trkpt lat="47.88721" lon="-3.94687">
        <ele>4</ele>
        <time>2013-07-15T09:00:07Z</time>
      </trkpt>
      <trkpt lat="47.88721" lon="-3.94686">
        <ele>4</ele>
        <time>2013-07-15T09:00:08Z</time>
      </trkpt>
      <trkpt lat="47.88721" lon="-3.94685">
        <ele>4</ele>
        <time>2013-07-15T09:00:09Z</time>
      </trkpt>
      <trkpt lat="47.88724" lon="-3.94675">
        <ele>5</ele>
        <time>2013-07-15T09:00:17Z</time>
      </trkpt>
      <trkpt lat="47.88732" lon="-3.94656">
        <ele>7</ele>
        <time>2013-07-15T09:00:32Z</time>
      </trkpt>
      <trkpt lat="47.88732" lon="-3.94653">
        <ele>7</ele>
        <time>2013-07-15T09:00:33Z</time>
      </trkpt>
      <trkpt lat="47.88731" lon="-3.94649">
        <ele>7</ele>
        <time>2013-07-15T09:00:35Z</time>
      </trkpt>
      <trkpt lat="47.8873" lon="-3.94647">
        <ele>7</ele>
        <time>2013-07-15T09:00:36Z</time>
      </trkpt>
      <trkpt lat="47.88729" lon="-3.9463">
        <ele>7</ele>
        <time>2013-07-15T09:00:43Z</time>
      </trkpt>
      <trkpt lat="47.88724" lon="-3.94593">
        <ele>7</ele>
        <time>2013-07-15T09:01:00Z</time>
      </trkpt>
      <trkpt lat="47.88727" lon="-3.94564">
        <ele>9</ele>
        <time>2013-07-15T09:01:14Z</time>
      </trkpt>
      <trkpt lat="47.88727" lon="-3.94561">
        <ele>9</ele>
        <time>2013-07-15T09:01:16Z</time>
      </trkpt>
      <trkpt lat="47.88732" lon="-3.94526">
        <ele>7</ele>
        <time>2013-07-15T09:01:31Z</time>
      </trkpt>
      <trkpt lat="47.88732" lon="-3.94523">
        <ele>7</ele>
        <time>2013-07-15T09:01:32Z</time>
      </trkpt>
      <trkpt lat="47.88733" lon="-3.94516">
        <ele>6</ele>
        <time>2013-07-15T09:01:37Z</time>
      </trkpt>
      <trkpt lat="47.88734" lon="-3.94502">
        <ele>4</ele>
        <time>2013-07-15T09:01:45Z</time>
      </trkpt>
      <trkpt lat="47.88725" lon="-3.94488">
        <ele>2</ele>
        <time>2013-07-15T09:01:56Z</time>
      </trkpt>
      <trkpt lat="47.88723" lon="-3.94485">
        <ele>1</ele>
        <time>2013-07-15T09:01:59Z</time>
      </trkpt>
      <trkpt lat="47.88715" lon="-3.94479">
        <ele>6</ele>
        <time>2013-07-15T09:02:06Z</time>
      </trkpt>
      <trkpt lat="47.88705" lon="-3.94469">
        <ele>-1</ele>
        <time>2013-07-15T09:02:19Z</time>
      </trkpt>
      <trkpt lat="47.887" lon="-3.94462">
        <ele>5.6</ele>
        <time>2013-07-15T09:02:24Z</time>
      </trkpt>
      <trkpt lat="47.88694" lon="-3.94452">
        <ele>1</ele>
        <time>2013-07-15T09:02:30Z</time>
      </trkpt>
      <trkpt lat="47.88692" lon="-3.9445">
        <ele>2</ele>
        <time>2013-07-15T09:02:33Z</time>
      </trkpt>
      <trkpt lat="47.8869" lon="-3.94447">
        <ele>3</ele>
        <time>2013-07-15T09:02:36Z</time>
      </trkpt>
      <trkpt lat="47.8868" lon="-3.94451">
        <ele>4</ele>
        <time>2013-07-15T09:02:49Z</time>
      </trkpt>
      <trkpt lat="47.88675" lon="-3.94451">
        <ele>5</ele>
        <time>2013-07-15T09:02:54Z</time>
      </trkpt>
      <trkpt lat="47.88664" lon="-3.94451">
        <ele>7</ele>
        <time>2013-07-15T09:03:06Z</time>
      </trkpt>
      <trkpt lat="47.88658" lon="-3.94442">
        <ele>8</ele>
        <time>2013-07-15T09:03:15Z</time>
      </trkpt>
      <trkpt lat="47.88652" lon="-3.94435">
        <ele>9</ele>
        <time>2013-07-15T09:03:20Z</time>
      </trkpt>
      <trkpt lat="47.88644" lon="-3.94429">
        <ele>9</ele>
        <time>2013-07-15T09:03:27Z</time>
      </trkpt>
      <trkpt lat="47.88635" lon="-3.94423">
        <ele>9</ele>
        <time>2013-07-15T09:03:33Z</time>
      </trkpt>
      <trkpt lat="47.88617" lon="-3.94416">
        <ele>9</ele>
        <time>2013-07-15T09:03:46Z</time>
      </trkpt>
      <trkpt lat="47.88612" lon="-3.94413">
        <ele>9</ele>
        <time>2013-07-15T09:03:50Z</time>
      </trkpt>
      <trkpt lat="47.88605" lon="-3.94409">
        <ele>9</ele>
        <time>2013-07-15T09:03:56Z</time>
      </trkpt>
      <trkpt lat="47.88599" lon="-3.9441">
        <ele>8</ele>
        <time>2013-07-15T09:04:00Z</time>
      </trkpt>
      <trkpt lat="47.88595" lon="-3.9441">
        <ele>8</ele>
        <time>2013-07-15T09:04:02Z</time>
      </trkpt>
      <trkpt lat="47.8859" lon="-3.94417">
        <ele>8</ele>
        <time>2013-07-15T09:04:17Z</time>
      </trkpt>
      <trkpt lat="47.88587" lon="-3.94415">
        <ele>8</ele>
        <time>2013-07-15T09:04:23Z</time>
      </trkpt>
      <trkpt lat="47.88574" lon="-3.94401">
        <ele>7</ele>
        <time>2013-07-15T09:04:35Z</time>
      </trkpt>
      <trkpt lat="47.88573" lon="-3.94399">
        <ele>7</ele>
        <time>2013-07-15T09:04:37Z</time>
      </trkpt>
      <trkpt lat="47.88561" lon="-3.94377">
        <ele>7</ele>
        <time>2013-07-15T09:04:51Z</time>
      </trkpt>
      <trkpt lat="47.88559" lon="-3.94375">
        <ele>7</ele>
        <time>2013-07-15T09:04:53Z</time>
      </trkpt>
      <trkpt lat="47.88545" lon="-3.94359">
        <ele>6</ele>
        <time>2013-07-15T09:05:05Z</time>
      </trkpt>
      <trkpt lat="47.88535" lon="-3.94336">
        <ele>7</ele>
        <time>2013-07-15T09:05:19Z</time>
      </trkpt>
      <trkpt lat="47.88532" lon="-3.94318">
        <ele>7</ele>
        <time>2013-07-15T09:05:30Z</time>
      </trkpt>
      <trkpt lat="47.88526" lon="-3.94304">
        <ele>7</ele>
        <time>2013-07-15T09:05:37Z</time>
      </trkpt>
      <trkpt lat="47.88524" lon="-3.94299">
        <ele>7</ele>
        <time>2013-07-15T09:05:43Z</time>
      </trkpt>
      <trkpt lat="47.88517" lon="-3.94283">
        <ele>7</ele>
        <time>2013-07-15T09:05:53Z</time>
      </trkpt>
      <trkpt lat="47.88512" lon="-3.94275">
        <ele>7</ele>
        <time>2013-07-15T09:06:02Z</time>
      </trkpt>
      <trkpt lat="47.88511" lon="-3.94277">
        <ele>7</ele>
        <time>2013-07-15T09:06:04Z</time>
      </trkpt>
      <trkpt lat="47.88514" lon="-3.9429">
        <ele>4</ele>
        <time>2013-07-15T09:06:19Z</time>
      </trkpt>
      <trkpt lat="47.88516" lon="-3.94301">
        <ele>3</ele>
        <time>2013-07-15T09:06:31Z</time>
      </trkpt>
      <trkpt lat="47.88516" lon="-3.94303">
        <ele>2</ele>
        <time>2013-07-15T09:06:47Z</time>
      </trkpt>
      <trkpt lat="47.88515" lon="-3.94299">
        <ele>3</ele>
        <time>2013-07-15T09:07:02Z</time>
      </trkpt>
      <trkpt lat="47.88512" lon="-3.9428">
        <ele>6</ele>
        <time>2013-07-15T09:07:13Z</time>
      </trkpt>
      <trkpt lat="47.88511" lon="-3.94274">
        <ele>7</ele>
        <time>2013-07-15T09:07:17Z</time>
      </trkpt>
      <trkpt lat="47.88503" lon="-3.94256">
        <ele>7</ele>
        <time>2013-07-15T09:07:29Z</time>
      </trkpt>
      <trkpt lat="47.88494" lon="-3.94244">
        <ele>7</ele>
        <time>2013-07-15T09:07:38Z</time>
      </trkpt>
      <trkpt lat="47.88486" lon="-3.94241">
        <ele>7</ele>
        <time>2013-07-15T09:07:44Z</time>
      </trkpt>
      <trkpt lat="47.8848" lon="-3.94239">
        <ele>7</ele>
        <time>2013-07-15T09:07:48Z</time>
      </trkpt>
      <trkpt lat="47.8846" lon="-3.94224">
        <ele>8</ele>
        <time>2013-07-15T09:08:03Z</time>
      </trkpt>
      <trkpt lat="47.88444" lon="-3.94199">
        <ele>9</ele>
        <time>2013-07-15T09:08:18Z</time>
      </trkpt>
      <trkpt lat="47.88433" lon="-3.94172">
        <ele>10</ele>
        <time>2013-07-15T09:08:33Z</time>
      </trkpt>
      <trkpt lat="47.88422" lon="-3.94148">
        <ele>10</ele>
        <time>2013-07-15T09:08:47Z</time>
      </trkpt>
      <trkpt lat="47.88411" lon="-3.94123">
        <ele>9</ele>
        <time>2013-07-15T09:09:02Z</time>
      </trkpt>
      <trkpt lat="47.88395" lon="-3.94107">
        <ele>8</ele>
        <time>2013-07-15T09:09:15Z</time>
      </trkpt>
      <trkpt lat="47.88392" lon="-3.94098">
        <ele>7</ele>
        <time>2013-07-15T09:09:20Z</time>
      </trkpt>
      <trkpt lat="47.88388" lon="-3.94088">
        <ele>7</ele>
        <time>2013-07-15T09:09:25Z</time>
      </trkpt>
      <trkpt lat="47.88387" lon="-3.94074">
        <ele>5</ele>
        <time>2013-07-15T09:09:31Z</time>
      </trkpt>
      <trkpt lat="47.88386" lon="-3.94063">
        <ele>4</ele>
        <time>2013-07-15T09:09:36Z</time>
      </trkpt>
      <trkpt lat="47.88376" lon="-3.94035">
        <ele>7</ele>
        <time>2013-07-15T09:09:51Z</time>
      </trkpt>
      <trkpt lat="47.88365" lon="-3.94013">
        <ele>10</ele>
        <time>2013-07-15T09:10:06Z</time>
      </trkpt>
      <trkpt lat="47.88361" lon="-3.94001">
        <ele>11</ele>
        <time>2013-07-15T09:10:13Z</time>
      </trkpt>
      <trkpt lat="47.88358" lon="-3.9398">
        <ele>11</ele>
        <time>2013-07-15T09:10:24Z</time>
      </trkpt>
      <trkpt lat="47.88354" lon="-3.93952">
        <ele>12</ele>
        <time>2013-07-15T09:10:38Z</time>
      </trkpt>
      <trkpt lat="47.88352" lon="-3.93921">
        <ele>13</ele>
        <time>2013-07-15T09:10:52Z</time>
      </trkpt>
      <trkpt lat="47.88353" lon="-3.93905">
        <ele>14</ele>
        <time>2013-07-15T09:10:59Z</time>
      </trkpt>
      <trkpt lat="47.8835" lon="-3.9389">
        <ele>14</ele>
        <time>2013-07-15T09:11:06Z</time>
      </trkpt>
      <trkpt lat="47.88334" lon="-3.93863">
        <ele>12</ele>
        <time>2013-07-15T09:11:23Z</time>
      </trkpt>
      <trkpt lat="47.88328" lon="-3.93843">
        <ele>10</ele>
        <time>2013-07-15T09:11:33Z</time>
      </trkpt>
      <trkpt lat="47.88326" lon="-3.9383">
        <ele>8</ele>
        <time>2013-07-15T09:11:39Z</time>
      </trkpt>
      <trkpt lat="47.88318" lon="-3.93791">
        <ele>7</ele>
        <time>2013-07-15T09:11:57Z</time>
      </trkpt>
      <trkpt lat="47.88318" lon="-3.93785">
        <ele>7</ele>
        <time>2013-07-15T09:12:00Z</time>
      </trkpt>
      <trkpt lat="47.88314" lon="-3.93763">
        <ele>7</ele>
        <time>2013-07-15T09:12:11Z</time>
      </trkpt>
      <trkpt lat="47.88312" lon="-3.93754">
        <ele>6</ele>
        <time>2013-07-15T09:12:15Z</time>
      </trkpt>
      <trkpt lat="47.88309" lon="-3.93737">
        <ele>8</ele>
        <time>2013-07-15T09:12:24Z</time>
      </trkpt>
      <trkpt lat="47.88307" lon="-3.93703">
        <ele>9</ele>
        <time>2013-07-15T09:12:42Z</time>
      </trkpt>
      <trkpt lat="47.88307" lon="-3.93691">
        <ele>10</ele>
        <time>2013-07-15T09:12:49Z</time>
      </trkpt>
      <trkpt lat="47.88304" lon="-3.93659">
        <ele>10</ele>
        <time>2013-07-15T09:13:03Z</time>
      </trkpt>
      <trkpt lat="47.88301" lon="-3.93653">
        <ele>9</ele>
        <time>2013-07-15T09:13:07Z</time>
      </trkpt>
      <trkpt lat="47.88298" lon="-3.93639">
        <ele>9</ele>
        <time>2013-07-15T09:13:16Z</time>
      </trkpt>
      <trkpt lat="47.88293" lon="-3.9361">
        <ele>9</ele>
        <time>2013-07-15T09:13:30Z</time>
      </trkpt>
      <trkpt lat="47.8829" lon="-3.93581">
        <ele>10</ele>
        <time>2013-07-15T09:13:44Z</time>
      </trkpt>
      <trkpt lat="47.88285" lon="-3.9355">
        <ele>10</ele>
        <time>2013-07-15T09:13:59Z</time>
      </trkpt>
      <trkpt lat="47.88284" lon="-3.93545">
        <ele>10</ele>
        <time>2013-07-15T09:14:02Z</time>
      </trkpt>
      <trkpt lat="47.88282" lon="-3.93536">
        <ele>10</ele>
        <time>2013-07-15T09:14:07Z</time>
      </trkpt>
      <trkpt lat="47.88274" lon="-3.93507">
        <ele>9</ele>
        <time>2013-07-15T09:14:21Z</time>
      </trkpt>
      <trkpt lat="47.8827" lon="-3.93488">
        <ele>9</ele>
        <time>2013-07-15T09:14:30Z</time>
      </trkpt>
      <trkpt lat="47.88269" lon="-3.93481">
        <ele>9</ele>
        <time>2013-07-15T09:14:34Z</time>
      </trkpt>
      <trkpt lat="47.88265" lon="-3.93459">
        <ele>9</ele>
        <time>2013-07-15T09:14:46Z</time>
      </trkpt>
      <trkpt lat="47.88263" lon="-3.93431">
        <ele>8</ele>
        <time>2013-07-15T09:14:59Z</time>
      </trkpt>
      <trkpt lat="47.88261" lon="-3.93418">
        <ele>7</ele>
        <time>2013-07-15T09:15:07Z</time>
      </trkpt>
      <trkpt lat="47.88255" lon="-3.93408">
        <ele>6</ele>
        <time>2013-07-15T09:15:13Z</time>
      </trkpt>
      <trkpt lat="47.88252" lon="-3.93403">
        <ele>6</ele>
        <time>2013-07-15T09:15:16Z</time>
      </trkpt>
      <trkpt lat="47.88248" lon="-3.93395">
        <ele>6</ele>
        <time>2013-07-15T09:15:22Z</time>
      </trkpt>
      <trkpt lat="47.88238" lon="-3.93373">
        <ele>6</ele>
        <time>2013-07-15T09:15:36Z</time>
      </trkpt>
      <trkpt lat="47.88233" lon="-3.93365">
        <ele>6</ele>
        <time>2013-07-15T09:15:47Z</time>
      </trkpt>
      <trkpt lat="47.88229" lon="-3.93359">
        <ele>6</ele>
        <time>2013-07-15T09:15:58Z</time>
      </trkpt>
      <trkpt lat="47.88228" lon="-3.93359">
        <ele>6</ele>
        <time>2013-07-15T09:16:16Z</time>
      </trkpt>
      <trkpt lat="47.88228" lon="-3.93357">
        <ele>6</ele>
        <time>2013-07-15T09:16:31Z</time>
      </trkpt>
      <trkpt lat="47.88218" lon="-3.9334">
        <ele>5</ele>
        <time>2013-07-15T09:16:43Z</time>
      </trkpt>
      <trkpt lat="47.88208" lon="-3.93329">
        <ele>5</ele>
        <time>2013-07-15T09:16:52Z</time>
      </trkpt>
      <trkpt lat="47.88205" lon="-3.93326">
        <ele>5</ele>
        <time>2013-07-15T09:16:55Z</time>
      </trkpt>
      <trkpt lat="47.88199" lon="-3.93309">
        <ele>4</ele>
        <time>2013-07-15T09:17:06Z</time>
      </trkpt>
      <trkpt lat="47.88187" lon="-3.93295">
        <ele>4</ele>
        <time>2013-07-15T09:17:20Z</time>
      </trkpt>
      <trkpt lat="47.88188" lon="-3.93298">
        <ele>4</ele>
        <time>2013-07-15T09:17:29Z</time>
      </trkpt>
      <trkpt lat="47.88187" lon="-3.93293">
        <ele>4</ele>
        <time>2013-07-15T09:17:40Z</time>
      </trkpt>
      <trkpt lat="47.88184" lon="-3.93291">
        <ele>4</ele>
        <time>2013-07-15T09:17:43Z</time>
      </trkpt>
      <trkpt lat="47.88177" lon="-3.93287">
        <ele>4</ele>
        <time>2013-07-15T09:17:49Z</time>
      </trkpt>
      <trkpt lat="47.88176" lon="-3.93284">
        <ele>4</ele>
        <time>2013-07-15T09:17:52Z</time>
      </trkpt>
      <trkpt lat="47.88171" lon="-3.93278">
        <ele>3</ele>
        <time>2013-07-15T09:18:01Z</time>
      </trkpt>
      <trkpt lat="47.88168" lon="-3.93273">
        <ele>3</ele>
        <time>2013-07-15T09:18:04Z</time>
      </trkpt>
      <trkpt lat="47.88162" lon="-3.93278">
        <ele>3</ele>
        <time>2013-07-15T09:18:21Z</time>
      </trkpt>
      <trkpt lat="47.88166" lon="-3.93266">
        <ele>3</ele>
        <time>2013-07-15T09:18:49Z</time>
      </trkpt>
      <trkpt lat="47.88166" lon="-3.93252">
        <ele>3</ele>
        <time>2013-07-15T09:18:59Z</time>
      </trkpt>
      <trkpt lat="47.8816" lon="-3.93249">
        <ele>3</ele>
        <time>2013-07-15T09:19:01Z</time>
      </trkpt>
      <trkpt lat="47.88151" lon="-3.93242">
        <ele>2</ele>
        <time>2013-07-15T09:19:07Z</time>
      </trkpt>
      <trkpt lat="47.88146" lon="-3.93235">
        <ele>2</ele>
        <time>2013-07-15T09:19:12Z</time>
      </trkpt>
      <trkpt lat="47.88131" lon="-3.93209">
        <ele>2</ele>
        <time>2013-07-15T09:19:27Z</time>
      </trkpt>
      <trkpt lat="47.88116" lon="-3.9319">
        <ele>2</ele>
        <time>2013-07-15T09:19:40Z</time>
      </trkpt>
      <trkpt lat="47.88111" lon="-3.93177">
        <ele>2</ele>
        <time>2013-07-15T09:19:46Z</time>
      </trkpt>
      <trkpt lat="47.88102" lon="-3.93158">
        <ele>2</ele>
        <time>2013-07-15T09:19:57Z</time>
      </trkpt>
      <trkpt lat="47.88093" lon="-3.93144">
        <ele>2</ele>
        <time>2013-07-15T09:20:05Z</time>
      </trkpt>
      <trkpt lat="47.88088" lon="-3.93135">
        <ele>2</ele>
        <time>2013-07-15T09:20:10Z</time>
      </trkpt>
      <trkpt lat="47.88087" lon="-3.93134">
        <ele>2</ele>
        <time>2013-07-15T09:20:11Z</time>
      </trkpt>
      <trkpt lat="47.88086" lon="-3.93133">
        <ele>2</ele>
        <time>2013-07-15T09:20:12Z</time>
      </trkpt>
      <trkpt lat="47.88083" lon="-3.93132">
        <ele>2</ele>
        <time>2013-07-15T09:20:14Z</time>
      </trkpt>
      <trkpt lat="47.88082" lon="-3.93131">
        <ele>2</ele>
        <time>2013-07-15T09:20:15Z</time>
      </trkpt>
      <trkpt lat="47.88081" lon="-3.93129">
        <ele>2</ele>
        <time>2013-07-15T09:20:16Z</time>
      </trkpt>
      <trkpt lat="47.88078" lon="-3.93127">
        <ele>2</ele>
        <time>2013-07-15T09:20:19Z</time>
      </trkpt>
      <trkpt lat="47.88066" lon="-3.93126">
        <ele>2</ele>
        <time>2013-07-15T09:20:30Z</time>
      </trkpt>
      <trkpt lat="47.88059" lon="-3.93125">
        <ele>2</ele>
        <time>2013-07-15T09:20:35Z</time>
      </trkpt>
      <trkpt lat="47.88055" lon="-3.93122">
        <ele>1</ele>
        <time>2013-07-15T09:20:39Z</time>
      </trkpt>
      <trkpt lat="47.88043" lon="-3.93122">
        <ele>2</ele>
        <time>2013-07-15T09:20:48Z</time>
      </trkpt>
      <trkpt lat="47.88042" lon="-3.93117">
        <ele>1</ele>
        <time>2013-07-15T09:20:51Z</time>
      </trkpt>
      <trkpt lat="47.88032" lon="-3.93112">
        <ele>2</ele>
        <time>2013-07-15T09:20:58Z</time>
      </trkpt>
      <trkpt lat="47.88034" lon="-3.9311">
        <ele>1</ele>
        <time>2013-07-15T09:21:04Z</time>
      </trkpt>
      <trkpt lat="47.8803" lon="-3.93105">
        <ele>1</ele>
        <time>2013-07-15T09:21:08Z</time>
      </trkpt>
      <trkpt lat="47.88028" lon="-3.93103">
        <ele>1</ele>
        <time>2013-07-15T09:21:10Z</time>
      </trkpt>
      <trkpt lat="47.88012" lon="-3.93088">
        <ele>1</ele>
        <time>2013-07-15T09:21:23Z</time>
      </trkpt>
      <trkpt lat="47.88005" lon="-3.93083">
        <ele>1</ele>
        <time>2013-07-15T09:21:28Z</time>
      </trkpt>
      <trkpt lat="47.87994" lon="-3.93079">
        <ele>1</ele>
        <time>2013-07-15T09:21:37Z</time>
      </trkpt>
      <trkpt lat="47.87987" lon="-3.93074">
        <ele>1</ele>
        <time>2013-07-15T09:21:43Z</time>
      </trkpt>
      <trkpt lat="47.87983" lon="-3.93071">
        <ele>1</ele>
        <time>2013-07-15T09:21:47Z</time>
      </trkpt>
      <trkpt lat="47.87975" lon="-3.93074">
        <ele>5.1</ele>
        <time>2013-07-15T09:22:01Z</time>
      </trkpt>
    </trkseg>
  </trk>
</gpx>